Time,TemperatureF,DewpointF,PressureIn,WindDirection,WindDirectionDegrees,WindSpeedMPH,WindSpeedGustMPH,Humidity,HourlyPrecipIn,Conditions,Clouds,dailyrainin,SoftwareType,DateUTC
2013-01-27 00:00:00,5.5,0.9,30.30,WNW,292,0.0,1.8,81,0.00,,,0.00,WUHU21623XXSP,2013-01-27 05:00:00,
2013-01-27 00:02:00,5.7,0.9,30.30,WNW,292,0.0,1.8,80,0.00,,,0.00,WUHU21623XXSP,2013-01-27 05:02:00,
2013-01-27 00:04:00,6.1,1.5,30.30,WNW,292,0.0,0.0,81,0.00,,,0.00,WUHU21623XXSP,2013-01-27 05:04:00,
2013-01-27 00:06:00,6.6,2.3,30.30,WNW,292,2.0,2.0,82,0.00,,,0.00,WUHU21623XXSP,2013-01-27 05:06:00,
2013-01-27 00:09:00,7.3,3.0,30.30,NNW,337,5.1,5.1,82,0.00,,,0.00,WUHU21623XXSP,2013-01-27 05:09:00,
2013-01-27 00:11:00,7.7,3.3,30.30,NW,315,0.0,5.1,82,0.00,,,0.00,WUHU21623XXSP,2013-01-27 05:11:00,
2013-01-27 00:13:00,7.9,3.5,30.30,NW,315,0.9,5.1,82,0.00,,,0.00,WUHU21623XXSP,2013-01-27 05:13:00,
2013-01-27 00:15:00,8.2,3.9,30.30,NW,315,2.5,5.1,82,0.00,,,0.00,WUHU21623XXSP,2013-01-27 05:15:00,
2013-01-27 00:17:00,8.4,4.1,30.30,NNW,337,0.0,5.1,82,0.00,,,0.00,WUHU21623XXSP,2013-01-27 05:17:00,
2013-01-27 00:19:00,8.4,3.8,30.30,NNW,337,0.0,2.5,81,0.00,,,0.00,WUHU21623XXSP,2013-01-27 05:19:00,
2013-01-27 00:21:00,8.2,3.6,30.30,NNW,337,0.0,2.5,81,0.00,,,0.00,WUHU21623XXSP,2013-01-27 05:21:00,
2013-01-27 00:24:00,8.2,3.6,30.30,NNW,337,0.0,2.5,81,0.00,,,0.00,WUHU21623XXSP,2013-01-27 05:24:00,
2013-01-27 00:26:00,8.1,3.5,30.30,NNW,337,0.0,0.0,81,0.00,,,0.00,WUHU21623XXSP,2013-01-27 05:26:00,
2013-01-27 00:28:00,7.9,3.3,30.30,NNW,337,0.0,0.0,81,0.00,,,0.00,WUHU21623XXSP,2013-01-27 05:28:00,
2013-01-27 00:30:00,8.1,3.5,30.30,NNW,337,0.0,0.0,81,0.00,,,0.00,WUHU21623XXSP,2013-01-27 05:30:00,
2013-01-27 00:32:00,8.2,3.6,30.30,NNW,337,0.0,0.0,81,0.00,,,0.00,WUHU21623XXSP,2013-01-27 05:32:00,
2013-01-27 00:34:00,8.4,3.8,30.30,NNW,337,3.8,3.8,81,0.00,,,0.00,WUHU21623XXSP,2013-01-27 05:34:00,
2013-01-27 00:37:00,8.4,3.8,30.31,NNW,337,0.0,3.8,81,0.00,,,0.00,WUHU21623XXSP,2013-01-27 05:37:00,
2013-01-27 00:39:00,8.4,3.8,30.30,NNW,337,2.2,3.8,81,0.00,,,0.00,WUHU21623XXSP,2013-01-27 05:39:00,
2013-01-27 00:41:00,8.8,4.2,30.31,NNW,337,2.9,3.8,81,0.00,,,0.00,WUHU21623XXSP,2013-01-27 05:41:00,
2013-01-27 00:43:00,8.8,4.2,30.30,NNW,337,4.3,4.3,81,0.00,,,0.00,WUHU21623XXSP,2013-01-27 05:43:00,
2013-01-27 00:45:00,8.8,4.2,30.31,NNW,337,0.0,4.3,81,0.00,,,0.00,WUHU21623XXSP,2013-01-27 05:45:00,
2013-01-27 00:47:00,8.8,4.2,30.31,NNW,337,0.0,4.3,81,0.00,,,0.00,WUHU21623XXSP,2013-01-27 05:47:00,
2013-01-27 00:49:00,8.8,4.2,30.31,NNW,337,2.0,4.3,81,0.00,,,0.00,WUHU21623XXSP,2013-01-27 05:49:00,
2013-01-27 00:51:00,9.0,4.3,30.31,NNW,337,0.0,4.3,81,0.00,,,0.00,WUHU21623XXSP,2013-01-27 05:51:00,
2013-01-27 00:54:00,9.0,4.3,30.31,NNW,337,2.5,2.5,81,0.00,,,0.00,WUHU21623XXSP,2013-01-27 05:54:00,
2013-01-27 00:56:00,9.0,4.3,30.31,NNW,337,1.6,2.5,81,0.00,,,0.00,WUHU21623XXSP,2013-01-27 05:56:00,
2013-01-27 00:58:00,8.8,4.2,30.31,NNW,337,0.0,2.5,81,0.00,,,0.00,WUHU21623XXSP,2013-01-27 05:58:00,
2013-01-27 01:00:00,8.6,4.0,30.31,NNW,337,0.0,2.5,81,0.00,,,0.00,WUHU21623XXSP,2013-01-27 06:00:00,
2013-01-27 01:02:00,8.4,3.8,30.31,NNW,337,0.0,2.5,81,0.00,,,0.00,WUHU21623XXSP,2013-01-27 06:02:00,
2013-01-27 01:04:00,8.4,3.6,30.31,NNW,337,0.0,1.6,80,0.00,,,0.00,WUHU21623XXSP,2013-01-27 06:04:00,
2013-01-27 01:06:00,8.1,3.2,30.31,NNW,337,0.0,0.0,80,0.00,,,0.00,WUHU21623XXSP,2013-01-27 06:06:00,
2013-01-27 01:09:00,7.7,2.8,30.31,NNW,337,0.0,0.0,80,0.00,,,0.00,WUHU21623XXSP,2013-01-27 06:09:00,
2013-01-27 01:11:00,7.5,2.7,30.31,NNW,337,0.0,0.0,80,0.00,,,0.00,WUHU21623XXSP,2013-01-27 06:11:00,
2013-01-27 01:13:00,7.5,2.7,30.31,NNW,337,0.0,0.0,80,0.00,,,0.00,WUHU21623XXSP,2013-01-27 06:13:00,
2013-01-27 01:15:00,7.3,2.5,30.31,NNW,337,0.0,0.0,80,0.00,,,0.00,WUHU21623XXSP,2013-01-27 06:15:00,
2013-01-27 01:17:00,7.2,2.3,30.31,NNW,337,0.0,0.0,80,0.00,,,0.00,WUHU21623XXSP,2013-01-27 06:17:00,
2013-01-27 01:19:00,7.0,2.1,30.31,NNW,337,0.0,0.0,80,0.00,,,0.00,WUHU21623XXSP,2013-01-27 06:19:00,
2013-01-27 01:21:00,7.0,2.1,30.31,NNW,337,0.0,0.0,80,0.00,,,0.00,WUHU21623XXSP,2013-01-27 06:21:00,
2013-01-27 01:24:00,6.6,1.8,30.31,NNW,337,0.0,0.0,80,0.00,,,0.00,WUHU21623XXSP,2013-01-27 06:24:00,
2013-01-27 01:26:00,6.6,1.8,30.31,NNW,337,0.0,0.0,80,0.00,,,0.00,WUHU21623XXSP,2013-01-27 06:26:00,
2013-01-27 01:28:00,6.3,1.4,30.32,NNW,337,0.0,0.0,80,0.00,,,0.00,WUHU21623XXSP,2013-01-27 06:28:00,
2013-01-27 01:30:00,5.9,1.0,30.32,NNW,337,0.0,0.0,80,0.00,,,0.00,WUHU21623XXSP,2013-01-27 06:30:00,
2013-01-27 01:32:00,5.5,0.7,30.32,NNW,337,0.0,0.0,80,0.00,,,0.00,WUHU21623XXSP,2013-01-27 06:32:00,
2013-01-27 01:34:00,5.2,0.3,30.31,NNW,337,0.0,0.0,80,0.00,,,0.00,WUHU21623XXSP,2013-01-27 06:34:00,
2013-01-27 01:36:00,4.8,0.0,30.32,NNW,337,0.0,0.0,80,0.00,,,0.00,WUHU21623XXSP,2013-01-27 06:36:00,
2013-01-27 01:38:00,4.6,-0.2,30.32,NNW,337,0.0,0.0,80,0.00,,,0.00,WUHU21623XXSP,2013-01-27 06:38:00,
2013-01-27 01:41:00,4.6,-0.2,30.32,NNW,337,0.0,0.0,80,0.00,,,0.00,WUHU21623XXSP,2013-01-27 06:41:00,
2013-01-27 01:43:00,4.5,-0.4,30.33,NNW,337,0.0,0.0,80,0.00,,,0.00,WUHU21623XXSP,2013-01-27 06:43:00,
2013-01-27 01:45:00,4.3,-0.6,30.33,NNW,337,0.0,0.0,80,0.00,,,0.00,WUHU21623XXSP,2013-01-27 06:45:00,
2013-01-27 01:47:00,4.1,-0.8,30.33,NNW,337,0.0,0.0,80,0.00,,,0.00,WUHU21623XXSP,2013-01-27 06:47:00,
2013-01-27 01:49:00,3.9,-0.9,30.32,NNW,337,0.0,0.0,80,0.00,,,0.00,WUHU21623XXSP,2013-01-27 06:49:00,
2013-01-27 01:51:00,3.9,-0.9,30.32,NNW,337,0.0,0.0,80,0.00,,,0.00,WUHU21623XXSP,2013-01-27 06:51:00,
2013-01-27 01:53:00,3.7,-1.1,30.32,NNW,337,0.0,0.0,80,0.00,,,0.00,WUHU21623XXSP,2013-01-27 06:53:00,
2013-01-27 01:56:00,3.6,-1.3,30.32,NNW,337,0.0,0.0,80,0.00,,,0.00,WUHU21623XXSP,2013-01-27 06:56:00,
2013-01-27 01:58:00,3.4,-1.5,30.32,NNW,337,0.0,0.0,80,0.00,,,0.00,WUHU21623XXSP,2013-01-27 06:58:00,
2013-01-27 02:02:00,2.8,-2.0,30.33,NNW,337,0.0,0.0,80,0.00,,,0.00,WUHU21623XXSP,2013-01-27 07:02:00,
2013-01-27 02:04:00,2.8,-2.0,30.33,NNW,337,0.0,0.0,80,0.00,,,0.00,WUHU21623XXSP,2013-01-27 07:04:00,
2013-01-27 02:06:00,2.8,-2.0,30.34,NNW,337,0.0,0.0,80,0.00,,,0.00,WUHU21623XXSP,2013-01-27 07:06:00,
2013-01-27 02:08:00,2.5,-2.4,30.33,NNW,337,0.0,0.0,80,0.00,,,0.00,WUHU21623XXSP,2013-01-27 07:08:00,
2013-01-27 02:11:00,2.3,-2.6,30.33,West,270,0.0,0.0,80,0.00,,,0.00,WUHU21623XXSP,2013-01-27 07:11:00,
2013-01-27 02:13:00,2.1,-2.7,30.33,WNW,292,0.0,0.0,80,0.00,,,0.00,WUHU21623XXSP,2013-01-27 07:13:00,
2013-01-27 02:15:00,1.9,-2.9,30.33,WNW,292,0.0,0.0,80,0.00,,,0.00,WUHU21623XXSP,2013-01-27 07:15:00,
2013-01-27 02:17:00,1.8,-3.1,30.33,WNW,292,0.0,0.0,80,0.00,,,0.00,WUHU21623XXSP,2013-01-27 07:17:00,
2013-01-27 02:19:00,1.8,-3.1,30.33,WNW,292,0.0,0.0,80,0.00,,,0.00,WUHU21623XXSP,2013-01-27 07:19:00,
2013-01-27 02:21:00,1.9,-2.9,30.33,WNW,292,0.0,0.0,80,0.00,,,0.00,WUHU21623XXSP,2013-01-27 07:21:00,
2013-01-27 02:23:00,2.1,-2.7,30.33,WNW,292,0.0,0.0,80,0.00,,,0.00,WUHU21623XXSP,2013-01-27 07:23:00,
2013-01-27 02:26:00,2.1,-2.7,30.34,WNW,292,0.0,0.0,80,0.00,,,0.00,WUHU21623XXSP,2013-01-27 07:26:00,
2013-01-27 02:28:00,2.1,-2.7,30.34,WNW,292,0.0,0.0,80,0.00,,,0.00,WUHU21623XXSP,2013-01-27 07:28:00,
2013-01-27 02:30:00,2.3,-2.6,30.34,WNW,292,0.0,0.0,80,0.00,,,0.00,WUHU21623XXSP,2013-01-27 07:30:00,
2013-01-27 02:32:00,2.1,-2.7,30.34,WNW,292,0.0,0.0,80,0.00,,,0.00,WUHU21623XXSP,2013-01-27 07:32:00,
2013-01-27 02:34:00,2.3,-2.6,30.34,WNW,292,0.0,0.0,80,0.00,,,0.00,WUHU21623XXSP,2013-01-27 07:34:00,
2013-01-27 02:36:00,2.5,-2.4,30.34,WNW,292,0.0,0.0,80,0.00,,,0.00,WUHU21623XXSP,2013-01-27 07:36:00,
2013-01-27 02:38:00,2.5,-2.4,30.34,WNW,292,0.0,0.0,80,0.00,,,0.00,WUHU21623XXSP,2013-01-27 07:38:00,
2013-01-27 02:41:00,2.5,-2.4,30.34,WNW,292,0.0,0.0,80,0.00,,,0.00,WUHU21623XXSP,2013-01-27 07:41:00,
2013-01-27 02:43:00,2.5,-2.4,30.34,WNW,292,0.0,0.0,80,0.00,,,0.00,WUHU21623XXSP,2013-01-27 07:43:00,
2013-01-27 02:45:00,2.1,-2.7,30.34,WNW,292,0.0,0.0,80,0.00,,,0.00,WUHU21623XXSP,2013-01-27 07:45:00,
2013-01-27 02:47:00,1.9,-2.9,30.35,WNW,292,0.0,0.0,80,0.00,,,0.00,WUHU21623XXSP,2013-01-27 07:47:00,
2013-01-27 02:49:00,1.9,-2.9,30.34,WNW,292,0.0,0.0,80,0.00,,,0.00,WUHU21623XXSP,2013-01-27 07:49:00,
2013-01-27 02:51:00,1.9,-2.9,30.34,WNW,292,0.0,0.0,80,0.00,,,0.00,WUHU21623XXSP,2013-01-27 07:51:00,
2013-01-27 02:53:00,1.6,-3.3,30.34,WNW,292,0.0,0.0,80,0.00,,,0.00,WUHU21623XXSP,2013-01-27 07:53:00,
2013-01-27 02:56:00,1.6,-3.3,30.35,WNW,292,0.0,0.0,80,0.00,,,0.00,WUHU21623XXSP,2013-01-27 07:56:00,
2013-01-27 02:58:00,1.8,-3.1,30.35,WNW,292,0.0,0.0,80,0.00,,,0.00,WUHU21623XXSP,2013-01-27 07:58:00,
2013-01-27 03:00:00,1.8,-3.1,30.35,WNW,292,0.0,0.0,80,0.00,,,0.00,WUHU21623XXSP,2013-01-27 08:00:00,
2013-01-27 03:02:00,2.1,-2.7,30.35,WNW,292,0.0,0.0,80,0.00,,,0.00,WUHU21623XXSP,2013-01-27 08:02:00,
2013-01-27 03:04:00,2.8,-2.0,30.35,WNW,292,0.0,0.0,80,0.00,,,0.00,WUHU21623XXSP,2013-01-27 08:04:00,
2013-01-27 03:06:00,3.0,-1.8,30.35,WNW,292,0.0,0.0,80,0.00,,,0.00,WUHU21623XXSP,2013-01-27 08:06:00,
2013-01-27 03:08:00,3.0,-1.8,30.35,WNW,292,0.0,0.0,80,0.00,,,0.00,WUHU21623XXSP,2013-01-27 08:08:00,
2013-01-27 03:11:00,2.8,-2.0,30.35,WNW,292,0.0,0.0,80,0.00,,,0.00,WUHU21623XXSP,2013-01-27 08:11:00,
2013-01-27 03:13:00,2.8,-2.0,30.35,WNW,292,0.0,0.0,80,0.00,,,0.00,WUHU21623XXSP,2013-01-27 08:13:00,
2013-01-27 03:15:00,2.8,-2.0,30.35,WNW,292,0.0,0.0,80,0.00,,,0.00,WUHU21623XXSP,2013-01-27 08:15:00,
2013-01-27 03:17:00,2.8,-2.0,30.35,WNW,292,0.0,0.0,80,0.00,,,0.00,WUHU21623XXSP,2013-01-27 08:17:00,
2013-01-27 03:19:00,2.8,-2.0,30.36,WNW,292,0.0,0.0,80,0.00,,,0.00,WUHU21623XXSP,2013-01-27 08:19:00,
2013-01-27 03:21:00,2.8,-2.0,30.36,WNW,292,0.0,0.0,80,0.00,,,0.00,WUHU21623XXSP,2013-01-27 08:21:00,
2013-01-27 03:23:00,2.8,-2.0,30.36,WNW,292,0.0,0.0,80,0.00,,,0.00,WUHU21623XXSP,2013-01-27 08:23:00,
2013-01-27 03:25:00,2.8,-2.0,30.36,WNW,292,0.0,0.0,80,0.00,,,0.00,WUHU21623XXSP,2013-01-27 08:25:00,
2013-01-27 03:28:00,2.5,-2.4,30.36,WNW,292,0.0,0.0,80,0.00,,,0.00,WUHU21623XXSP,2013-01-27 08:28:00,
2013-01-27 03:30:00,2.3,-2.6,30.36,WNW,292,0.0,0.0,80,0.00,,,0.00,WUHU21623XXSP,2013-01-27 08:30:00,
2013-01-27 03:32:00,2.3,-2.6,30.36,WNW,292,0.0,0.0,80,0.00,,,0.00,WUHU21623XXSP,2013-01-27 08:32:00,
2013-01-27 03:34:00,2.5,-2.4,30.36,WNW,292,0.0,0.0,80,0.00,,,0.00,WUHU21623XXSP,2013-01-27 08:34:00,
2013-01-27 03:36:00,2.5,-2.4,30.36,WNW,292,0.0,0.0,80,0.00,,,0.00,WUHU21623XXSP,2013-01-27 08:36:00,
2013-01-27 03:38:00,2.5,-2.4,30.36,WNW,292,0.0,0.0,80,0.00,,,0.00,WUHU21623XXSP,2013-01-27 08:38:00,
2013-01-27 03:40:00,2.5,-2.4,30.36,WNW,292,0.0,0.0,80,0.00,,,0.00,WUHU21623XXSP,2013-01-27 08:40:00,
2013-01-27 03:43:00,2.3,-2.6,30.36,WNW,292,0.0,0.0,80,0.00,,,0.00,WUHU21623XXSP,2013-01-27 08:43:00,
2013-01-27 03:45:00,2.1,-2.7,30.36,WNW,292,0.0,0.0,80,0.00,,,0.00,WUHU21623XXSP,2013-01-27 08:45:00,
2013-01-27 03:47:00,1.9,-2.9,30.37,WNW,292,0.0,0.0,80,0.00,,,0.00,WUHU21623XXSP,2013-01-27 08:47:00,
2013-01-27 03:49:00,1.9,-2.9,30.36,WNW,292,0.0,0.0,80,0.00,,,0.00,WUHU21623XXSP,2013-01-27 08:49:00,
2013-01-27 03:51:00,1.9,-2.9,30.36,WNW,292,0.0,0.0,80,0.00,,,0.00,WUHU21623XXSP,2013-01-27 08:51:00,
2013-01-27 03:53:00,1.9,-2.9,30.36,WNW,292,0.0,0.0,80,0.00,,,0.00,WUHU21623XXSP,2013-01-27 08:53:00,
2013-01-27 03:55:00,1.9,-2.9,30.37,WNW,292,0.0,0.0,80,0.00,,,0.00,WUHU21623XXSP,2013-01-27 08:55:00,
2013-01-27 03:58:00,1.9,-2.9,30.36,WNW,292,0.0,0.0,80,0.00,,,0.00,WUHU21623XXSP,2013-01-27 08:58:00,
2013-01-27 04:00:00,1.8,-3.1,30.37,WNW,292,0.0,0.0,80,0.00,,,0.00,WUHU21623XXSP,2013-01-27 09:00:00,
2013-01-27 04:02:00,1.2,-3.6,30.37,WNW,292,0.0,0.0,80,0.00,,,0.00,WUHU21623XXSP,2013-01-27 09:02:00,
2013-01-27 04:04:00,1.2,-3.6,30.37,WNW,292,0.0,0.0,80,0.00,,,0.00,WUHU21623XXSP,2013-01-27 09:04:00,
2013-01-27 04:06:00,1.0,-3.8,30.37,WNW,292,0.0,0.0,80,0.00,,,0.00,WUHU21623XXSP,2013-01-27 09:06:00,
2013-01-27 04:08:00,0.7,-4.1,30.37,WNW,292,0.0,0.0,80,0.00,,,0.00,WUHU21623XXSP,2013-01-27 09:08:00,
2013-01-27 04:10:00,0.5,-4.3,30.37,WNW,292,0.0,0.0,80,0.00,,,0.00,WUHU21623XXSP,2013-01-27 09:10:00,
2013-01-27 04:13:00,0.3,-4.7,30.37,WNW,292,0.0,0.0,79,0.00,,,0.00,WUHU21623XXSP,2013-01-27 09:13:00,
2013-01-27 04:15:00,0.1,-4.6,30.37,WNW,292,0.0,0.0,80,0.00,,,0.00,WUHU21623XXSP,2013-01-27 09:15:00,
2013-01-27 04:17:00,-0.2,-5.2,30.37,WNW,292,0.0,0.0,79,0.00,,,0.00,WUHU21623XXSP,2013-01-27 09:17:00,
2013-01-27 04:19:00,-0.2,-5.2,30.37,WNW,292,0.0,0.0,79,0.00,,,0.00,WUHU21623XXSP,2013-01-27 09:19:00,
2013-01-27 04:21:00,-0.6,-5.3,30.37,WNW,292,0.0,0.0,80,0.00,,,0.00,WUHU21623XXSP,2013-01-27 09:21:00,
2013-01-27 04:23:00,-0.8,-5.7,30.37,WNW,292,0.0,0.0,79,0.00,,,0.00,WUHU21623XXSP,2013-01-27 09:23:00,
2013-01-27 04:25:00,-0.8,-5.4,30.37,WNW,292,0.0,0.0,80,0.00,,,0.00,WUHU21623XXSP,2013-01-27 09:25:00,
2013-01-27 04:28:00,-1.1,-6.1,30.37,WNW,292,0.0,0.0,79,0.00,,,0.00,WUHU21623XXSP,2013-01-27 09:28:00,
2013-01-27 04:30:00,-1.3,-6.3,30.37,WNW,292,0.0,0.0,79,0.00,,,0.00,WUHU21623XXSP,2013-01-27 09:30:00,
2013-01-27 04:32:00,-1.3,-6.0,30.38,WNW,292,0.0,0.0,80,0.00,,,0.00,WUHU21623XXSP,2013-01-27 09:32:00,
2013-01-27 04:34:00,-1.5,-6.2,30.37,WNW,292,0.0,0.0,80,0.00,,,0.00,WUHU21623XXSP,2013-01-27 09:34:00,
2013-01-27 04:36:00,-1.5,-6.2,30.38,WNW,292,0.0,0.0,80,0.00,,,0.00,WUHU21623XXSP,2013-01-27 09:36:00,
2013-01-27 04:38:00,-1.5,-6.2,30.38,WNW,292,0.0,0.0,80,0.00,,,0.00,WUHU21623XXSP,2013-01-27 09:38:00,
2013-01-27 04:40:00,-1.7,-6.6,30.38,WNW,292,0.0,0.0,79,0.00,,,0.00,WUHU21623XXSP,2013-01-27 09:40:00,
2013-01-27 04:43:00,-1.8,-6.8,30.38,WNW,292,0.0,0.0,79,0.00,,,0.00,WUHU21623XXSP,2013-01-27 09:43:00,
2013-01-27 04:45:00,-2.0,-7.0,30.38,WNW,292,0.0,0.0,79,0.00,,,0.00,WUHU21623XXSP,2013-01-27 09:45:00,
2013-01-27 04:47:00,-2.2,-7.1,30.38,WNW,292,0.0,0.0,79,0.00,,,0.00,WUHU21623XXSP,2013-01-27 09:47:00,
2013-01-27 04:49:00,-2.4,-7.3,30.38,WNW,292,0.0,0.0,79,0.00,,,0.00,WUHU21623XXSP,2013-01-27 09:49:00,
2013-01-27 04:51:00,-2.4,-7.3,30.38,WNW,292,0.0,0.0,79,0.00,,,0.00,WUHU21623XXSP,2013-01-27 09:51:00,
2013-01-27 04:53:00,-2.4,-7.1,30.38,WNW,292,0.0,0.0,80,0.00,,,0.00,WUHU21623XXSP,2013-01-27 09:53:00,
2013-01-27 04:55:00,-2.4,-7.1,30.38,WNW,292,0.0,0.0,80,0.00,,,0.00,WUHU21623XXSP,2013-01-27 09:55:00,
2013-01-27 04:58:00,-2.4,-7.3,30.39,WNW,292,0.0,0.0,79,0.00,,,0.00,WUHU21623XXSP,2013-01-27 09:58:00,
2013-01-27 05:00:00,-2.6,-7.5,30.39,WNW,292,0.0,0.0,79,0.00,,,0.00,WUHU21623XXSP,2013-01-27 10:00:00,
2013-01-27 05:02:00,-2.6,-7.5,30.39,WNW,292,0.0,0.0,79,0.00,,,0.00,WUHU21623XXSP,2013-01-27 10:02:00,
2013-01-27 05:04:00,-2.9,-7.9,30.39,WNW,292,0.0,0.0,79,0.00,,,0.00,WUHU21623XXSP,2013-01-27 10:04:00,
2013-01-27 05:06:00,-2.9,-7.9,30.39,WNW,292,0.0,0.0,79,0.00,,,0.00,WUHU21623XXSP,2013-01-27 10:06:00,
2013-01-27 05:08:00,-2.7,-7.4,30.38,WNW,292,0.0,0.0,80,0.00,,,0.00,WUHU21623XXSP,2013-01-27 10:08:00,
2013-01-27 05:10:00,-2.4,-7.1,30.38,WNW,292,0.0,0.0,80,0.00,,,0.00,WUHU21623XXSP,2013-01-27 10:10:00,
2013-01-27 05:12:00,-1.7,-6.3,30.38,WNW,292,0.0,0.0,80,0.00,,,0.00,WUHU21623XXSP,2013-01-27 10:12:00,
2013-01-27 05:15:00,-0.8,-5.4,30.39,WNW,292,0.0,0.0,80,0.00,,,0.00,WUHU21623XXSP,2013-01-27 10:15:00,
2013-01-27 05:17:00,-0.2,-4.9,30.39,WNW,292,0.0,0.0,80,0.00,,,0.00,WUHU21623XXSP,2013-01-27 10:17:00,
2013-01-27 05:19:00,0.0,-4.8,30.39,NW,315,0.0,0.0,80,0.00,,,0.00,WUHU21623XXSP,2013-01-27 10:19:00,
2013-01-27 05:21:00,1.0,-3.8,30.39,NNW,337,0.0,0.0,80,0.00,,,0.00,WUHU21623XXSP,2013-01-27 10:21:00,
2013-01-27 05:23:00,1.9,-2.9,30.39,NNW,337,0.0,0.0,80,0.00,,,0.00,WUHU21623XXSP,2013-01-27 10:23:00,
2013-01-27 05:25:00,2.5,-2.4,30.39,NNW,337,0.0,0.0,80,0.00,,,0.00,WUHU21623XXSP,2013-01-27 10:25:00,
2013-01-27 05:28:00,3.0,-1.8,30.39,NNW,337,0.0,0.0,80,0.00,,,0.00,WUHU21623XXSP,2013-01-27 10:28:00,
2013-01-27 05:30:00,3.0,-1.8,30.39,NNW,337,0.0,0.0,80,0.00,,,0.00,WUHU21623XXSP,2013-01-27 10:30:00,
2013-01-27 05:32:00,2.8,-2.0,30.39,NNW,337,0.0,0.0,80,0.00,,,0.00,WUHU21623XXSP,2013-01-27 10:32:00,
2013-01-27 05:34:00,2.8,-2.0,30.40,NNW,337,0.0,0.0,80,0.00,,,0.00,WUHU21623XXSP,2013-01-27 10:34:00,
2013-01-27 05:36:00,2.5,-2.4,30.40,NNW,337,0.0,0.0,80,0.00,,,0.00,WUHU21623XXSP,2013-01-27 10:36:00,
2013-01-27 05:38:00,2.3,-2.6,30.40,NNW,337,0.0,0.0,80,0.00,,,0.00,WUHU21623XXSP,2013-01-27 10:38:00,
2013-01-27 05:40:00,2.1,-2.7,30.40,NNW,337,0.0,0.0,80,0.00,,,0.00,WUHU21623XXSP,2013-01-27 10:40:00,
2013-01-27 05:42:00,2.1,-2.7,30.40,NNW,337,0.0,0.0,80,0.00,,,0.00,WUHU21623XXSP,2013-01-27 10:42:00,
2013-01-27 05:45:00,1.9,-2.9,30.40,NNW,337,0.0,0.0,80,0.00,,,0.00,WUHU21623XXSP,2013-01-27 10:45:00,
2013-01-27 05:47:00,1.9,-2.9,30.40,NNW,337,0.0,0.0,80,0.00,,,0.00,WUHU21623XXSP,2013-01-27 10:47:00,
2013-01-27 05:49:00,1.9,-2.9,30.40,NNW,337,0.0,0.0,80,0.00,,,0.00,WUHU21623XXSP,2013-01-27 10:49:00,
2013-01-27 05:51:00,1.9,-2.9,30.40,NNW,337,0.0,0.0,80,0.00,,,0.00,WUHU21623XXSP,2013-01-27 10:51:00,
2013-01-27 05:53:00,1.9,-2.9,30.40,NNW,337,0.0,0.0,80,0.00,,,0.00,WUHU21623XXSP,2013-01-27 10:53:00,
2013-01-27 05:55:00,1.9,-2.9,30.40,NNW,337,0.0,0.0,80,0.00,,,0.00,WUHU21623XXSP,2013-01-27 10:55:00,
2013-01-27 05:57:00,2.1,-2.7,30.40,NNW,337,0.0,0.0,80,0.00,,,0.00,WUHU21623XXSP,2013-01-27 10:57:00,
2013-01-27 06:00:00,2.1,-2.7,30.40,NNW,337,0.0,0.0,80,0.00,,,0.00,WUHU21623XXSP,2013-01-27 11:00:00,
2013-01-27 06:02:00,1.9,-2.9,30.40,NNW,337,0.0,0.0,80,0.00,,,0.00,WUHU21623XXSP,2013-01-27 11:02:00,
2013-01-27 06:04:00,2.1,-2.7,30.40,NNW,337,0.0,0.0,80,0.00,,,0.00,WUHU21623XXSP,2013-01-27 11:04:00,
2013-01-27 06:06:00,2.3,-2.6,30.40,NNW,337,0.0,0.0,80,0.00,,,0.00,WUHU21623XXSP,2013-01-27 11:06:00,
2013-01-27 06:08:00,2.1,-2.7,30.40,NNW,337,0.0,0.0,80,0.00,,,0.00,WUHU21623XXSP,2013-01-27 11:08:00,
2013-01-27 06:10:00,2.3,-2.6,30.41,NNW,337,0.0,0.0,80,0.00,,,0.00,WUHU21623XXSP,2013-01-27 11:10:00,
2013-01-27 06:12:00,2.5,-2.4,30.41,NNW,337,0.0,0.0,80,0.00,,,0.00,WUHU21623XXSP,2013-01-27 11:12:00,
2013-01-27 06:15:00,2.5,-2.4,30.40,NNW,337,0.0,0.0,80,0.00,,,0.00,WUHU21623XXSP,2013-01-27 11:15:00,
2013-01-27 06:17:00,2.3,-2.6,30.40,NNW,337,0.0,0.0,80,0.00,,,0.00,WUHU21623XXSP,2013-01-27 11:17:00,
2013-01-27 06:19:00,1.9,-2.9,30.41,NNW,337,0.0,0.0,80,0.00,,,0.00,WUHU21623XXSP,2013-01-27 11:19:00,
2013-01-27 06:21:00,1.8,-3.1,30.41,NNW,337,0.0,0.0,80,0.00,,,0.00,WUHU21623XXSP,2013-01-27 11:21:00,
2013-01-27 06:23:00,1.6,-3.3,30.41,NNW,337,0.0,0.0,80,0.00,,,0.00,WUHU21623XXSP,2013-01-27 11:23:00,
2013-01-27 06:25:00,1.4,-3.5,30.41,NNW,337,0.0,0.0,80,0.00,,,0.00,WUHU21623XXSP,2013-01-27 11:25:00,
2013-01-27 06:27:00,1.2,-3.6,30.41,NNW,337,0.0,0.0,80,0.00,,,0.00,WUHU21623XXSP,2013-01-27 11:27:00,
2013-01-27 06:30:00,1.2,-3.6,30.41,NNW,337,0.0,0.0,80,0.00,,,0.00,WUHU21623XXSP,2013-01-27 11:30:00,
2013-01-27 06:32:00,1.0,-4.1,30.41,NNW,337,0.0,0.0,79,0.00,,,0.00,WUHU21623XXSP,2013-01-27 11:32:00,
2013-01-27 06:34:00,0.9,-4.2,30.41,NNW,337,0.0,0.0,79,0.00,,,0.00,WUHU21623XXSP,2013-01-27 11:34:00,
2013-01-27 06:36:00,1.0,-4.1,30.42,NNW,337,0.0,0.0,79,0.00,,,0.00,WUHU21623XXSP,2013-01-27 11:36:00,
2013-01-27 06:38:00,0.9,-4.2,30.42,NNW,337,0.0,0.0,79,0.00,,,0.00,WUHU21623XXSP,2013-01-27 11:38:00,
2013-01-27 06:40:00,0.5,-4.6,30.42,NNW,337,0.0,0.0,79,0.00,,,0.00,WUHU21623XXSP,2013-01-27 11:40:00,
2013-01-27 06:42:00,0.3,-4.7,30.41,NNW,337,0.0,0.0,79,0.00,,,0.00,WUHU21623XXSP,2013-01-27 11:42:00,
2013-01-27 06:44:00,0.0,-5.0,30.42,NNW,337,0.0,0.0,79,0.00,,,0.00,WUHU21623XXSP,2013-01-27 11:44:00,
2013-01-27 06:47:00,-0.6,-5.5,30.42,NNW,337,0.0,0.0,79,0.00,,,0.00,WUHU21623XXSP,2013-01-27 11:47:00,
2013-01-27 06:49:00,-0.8,-5.7,30.42,NNW,337,0.0,0.0,79,0.00,,,0.00,WUHU21623XXSP,2013-01-27 11:49:00,
2013-01-27 06:51:00,-1.1,-6.1,30.42,NNW,337,0.0,0.0,79,0.00,,,0.00,WUHU21623XXSP,2013-01-27 11:51:00,
2013-01-27 06:53:00,-1.3,-6.3,30.42,NNW,337,0.0,0.0,79,0.00,,,0.00,WUHU21623XXSP,2013-01-27 11:53:00,
2013-01-27 06:55:00,-1.7,-6.6,30.42,NNW,337,0.0,0.0,79,0.00,,,0.00,WUHU21623XXSP,2013-01-27 11:55:00,
2013-01-27 06:57:00,-1.8,-6.8,30.42,NNW,337,0.0,0.0,79,0.00,,,0.00,WUHU21623XXSP,2013-01-27 11:57:00,
2013-01-27 07:00:00,-2.2,-7.1,30.43,NNW,337,0.0,0.0,79,0.00,,,0.00,WUHU21623XXSP,2013-01-27 12:00:00,
2013-01-27 07:02:00,-2.4,-7.3,30.43,NNW,337,0.0,0.0,79,0.00,,,0.00,WUHU21623XXSP,2013-01-27 12:02:00,
2013-01-27 07:04:00,-2.4,-7.3,30.43,NNW,337,0.0,0.0,79,0.00,,,0.00,WUHU21623XXSP,2013-01-27 12:04:00,
2013-01-27 07:06:00,-2.4,-7.3,30.43,NNW,337,0.0,0.0,79,0.00,,,0.00,WUHU21623XXSP,2013-01-27 12:06:00,
2013-01-27 07:08:00,-2.4,-7.3,30.43,NNW,337,0.0,0.0,79,0.00,,,0.00,WUHU21623XXSP,2013-01-27 12:08:00,
2013-01-27 07:10:00,-2.4,-7.3,30.43,NNW,337,0.0,0.0,79,0.00,,,0.00,WUHU21623XXSP,2013-01-27 12:10:00,
2013-01-27 07:12:00,-2.4,-7.3,30.44,NNW,337,0.0,0.0,79,0.00,,,0.00,WUHU21623XXSP,2013-01-27 12:12:00,
2013-01-27 07:15:00,-2.4,-7.3,30.44,NNW,337,0.0,0.0,79,0.00,,,0.00,WUHU21623XXSP,2013-01-27 12:15:00,
2013-01-27 07:17:00,-2.4,-7.3,30.44,NNW,337,0.0,0.0,79,0.00,,,0.00,WUHU21623XXSP,2013-01-27 12:17:00,
2013-01-27 07:19:00,-2.4,-7.3,30.44,NNW,337,0.0,0.0,79,0.00,,,0.00,WUHU21623XXSP,2013-01-27 12:19:00,
2013-01-27 07:21:00,-2.4,-7.3,30.44,NNW,337,0.0,0.0,79,0.00,,,0.00,WUHU21623XXSP,2013-01-27 12:21:00,
2013-01-27 07:23:00,-2.6,-7.5,30.44,NNW,337,0.0,0.0,79,0.00,,,0.00,WUHU21623XXSP,2013-01-27 12:23:00,
2013-01-27 07:25:00,-2.9,-7.9,30.44,NNW,337,0.0,0.0,79,0.00,,,0.00,WUHU21623XXSP,2013-01-27 12:25:00,
2013-01-27 07:27:00,-3.1,-8.1,30.44,NNW,337,0.0,0.0,79,0.00,,,0.00,WUHU21623XXSP,2013-01-27 12:27:00,
2013-01-27 07:29:00,-3.1,-8.1,30.44,NNW,337,0.0,0.0,79,0.00,,,0.00,WUHU21623XXSP,2013-01-27 12:29:00,
2013-01-27 07:32:00,-3.1,-8.1,30.44,NNW,337,0.0,0.0,79,0.00,,,0.00,WUHU21623XXSP,2013-01-27 12:32:00,
2013-01-27 07:34:00,-2.7,-7.7,30.44,NNW,337,0.0,0.0,79,0.00,,,0.00,WUHU21623XXSP,2013-01-27 12:34:00,
2013-01-27 07:36:00,-2.7,-7.7,30.45,NNW,337,0.0,0.0,79,0.00,,,0.00,WUHU21623XXSP,2013-01-27 12:36:00,
2013-01-27 07:38:00,-2.6,-7.5,30.44,NNW,337,0.0,0.0,79,0.00,,,0.00,WUHU21623XXSP,2013-01-27 12:38:00,
2013-01-27 07:40:00,-2.6,-7.5,30.45,NNW,337,0.0,0.0,79,0.00,,,0.00,WUHU21623XXSP,2013-01-27 12:40:00,
2013-01-27 07:42:00,-2.4,-7.3,30.45,NNW,337,0.0,0.0,79,0.00,,,0.00,WUHU21623XXSP,2013-01-27 12:42:00,
2013-01-27 07:44:00,-2.4,-7.3,30.45,NNW,337,0.0,0.0,79,0.00,,,0.00,WUHU21623XXSP,2013-01-27 12:44:00,
2013-01-27 07:47:00,-2.0,-7.0,30.45,NNW,337,0.0,0.0,79,0.00,,,0.00,WUHU21623XXSP,2013-01-27 12:47:00,
2013-01-27 07:49:00,-2.0,-7.0,30.45,NNW,337,0.0,0.0,79,0.00,,,0.00,WUHU21623XXSP,2013-01-27 12:49:00,
2013-01-27 07:51:00,-2.0,-7.0,30.45,NNW,337,0.0,0.0,79,0.00,,,0.00,WUHU21623XXSP,2013-01-27 12:51:00,
2013-01-27 07:53:00,-1.8,-6.8,30.45,NNW,337,0.0,0.0,79,0.00,,,0.00,WUHU21623XXSP,2013-01-27 12:53:00,
2013-01-27 07:55:00,-1.7,-6.6,30.45,NNW,337,0.0,0.0,79,0.00,,,0.00,WUHU21623XXSP,2013-01-27 12:55:00,
2013-01-27 07:57:00,-1.3,-6.3,30.46,NNW,337,0.0,0.0,79,0.00,,,0.00,WUHU21623XXSP,2013-01-27 12:57:00,
2013-01-27 07:59:00,-0.8,-5.7,30.46,NNW,337,0.0,0.0,79,0.00,,,0.00,WUHU21623XXSP,2013-01-27 12:59:00,
2013-01-27 08:02:00,-0.6,-5.5,30.46,NNW,337,0.0,0.0,79,0.00,,,0.00,WUHU21623XXSP,2013-01-27 13:02:00,
2013-01-27 08:04:00,-0.2,-5.2,30.46,NNW,337,0.0,0.0,79,0.00,,,0.00,WUHU21623XXSP,2013-01-27 13:04:00,
2013-01-27 08:06:00,0.3,-4.7,30.46,NNW,337,0.0,0.0,79,0.00,,,0.00,WUHU21623XXSP,2013-01-27 13:06:00,
2013-01-27 08:08:00,0.5,-4.6,30.46,NNW,337,0.0,0.0,79,0.00,,,0.00,WUHU21623XXSP,2013-01-27 13:08:00,
2013-01-27 08:10:00,1.2,-3.6,30.46,NNW,337,0.0,0.0,80,0.00,,,0.00,WUHU21623XXSP,2013-01-27 13:10:00,
2013-01-27 08:12:00,1.9,-2.9,30.46,NNW,337,0.0,0.0,80,0.00,,,0.00,WUHU21623XXSP,2013-01-27 13:12:00,
2013-01-27 08:14:00,2.5,-2.4,30.45,NNW,337,0.0,0.0,80,0.00,,,0.00,WUHU21623XXSP,2013-01-27 13:14:00,
2013-01-27 08:17:00,3.4,-1.5,30.46,NNW,337,0.0,0.0,80,0.00,,,0.00,WUHU21623XXSP,2013-01-27 13:17:00,
2013-01-27 08:19:00,3.7,-1.1,30.46,NNW,337,0.0,0.0,80,0.00,,,0.00,WUHU21623XXSP,2013-01-27 13:19:00,
2013-01-27 08:21:00,4.1,-0.8,30.46,NNW,337,0.0,0.0,80,0.00,,,0.00,WUHU21623XXSP,2013-01-27 13:21:00,
2013-01-27 08:23:00,4.5,-0.4,30.46,NNW,337,0.0,0.0,80,0.00,,,0.00,WUHU21623XXSP,2013-01-27 13:23:00,
2013-01-27 08:25:00,4.8,0.0,30.46,NNW,337,0.0,0.0,80,0.00,,,0.00,WUHU21623XXSP,2013-01-27 13:25:00,
2013-01-27 08:27:00,5.0,0.1,30.46,NNW,337,0.0,0.0,80,0.00,,,0.00,WUHU21623XXSP,2013-01-27 13:27:00,
2013-01-27 08:29:00,5.4,0.2,30.46,NNW,337,0.0,0.0,79,0.00,,,0.00,WUHU21623XXSP,2013-01-27 13:29:00,
2013-01-27 08:31:00,5.5,0.4,30.46,NNW,337,0.0,0.0,79,0.00,,,0.00,WUHU21623XXSP,2013-01-27 13:31:00,
2013-01-27 08:34:00,5.9,0.8,30.46,NNW,337,0.0,0.0,79,0.00,,,0.00,WUHU21623XXSP,2013-01-27 13:34:00,
2013-01-27 08:36:00,6.1,0.9,30.46,NNW,337,0.0,0.0,79,0.00,,,0.00,WUHU21623XXSP,2013-01-27 13:36:00,
2013-01-27 08:38:00,6.1,1.2,30.46,NNW,337,0.0,0.0,80,0.00,,,0.00,WUHU21623XXSP,2013-01-27 13:38:00,
2013-01-27 08:40:00,6.1,1.2,30.46,NNW,337,0.0,0.0,80,0.00,,,0.00,WUHU21623XXSP,2013-01-27 13:40:00,
2013-01-27 08:42:00,6.3,1.4,30.47,NNW,337,0.0,0.0,80,0.00,,,0.00,WUHU21623XXSP,2013-01-27 13:42:00,
2013-01-27 08:44:00,6.4,1.6,30.47,NNW,337,0.0,0.0,80,0.00,,,0.00,WUHU21623XXSP,2013-01-27 13:44:00,
2013-01-27 08:46:00,6.4,1.3,30.47,NNW,337,0.0,0.0,79,0.00,,,0.00,WUHU21623XXSP,2013-01-27 13:46:00,
2013-01-27 08:49:00,6.4,1.3,30.47,NNW,337,0.0,0.0,79,0.00,,,0.00,WUHU21623XXSP,2013-01-27 13:49:00,
2013-01-27 08:51:00,6.4,1.3,30.47,NNW,337,0.0,0.0,79,0.00,,,0.00,WUHU21623XXSP,2013-01-27 13:51:00,
2013-01-27 08:53:00,6.6,1.5,30.47,NNW,337,0.0,0.0,79,0.00,,,0.00,WUHU21623XXSP,2013-01-27 13:53:00,
2013-01-27 08:55:00,7.0,1.8,30.47,NNW,337,0.0,0.0,79,0.00,,,0.00,WUHU21623XXSP,2013-01-27 13:55:00,
2013-01-27 08:57:00,7.2,2.0,30.47,NNW,337,0.0,0.0,79,0.00,,,0.00,WUHU21623XXSP,2013-01-27 13:57:00,
2013-01-27 08:59:00,7.5,2.4,30.47,NNW,337,0.0,0.0,79,0.00,,,0.00,WUHU21623XXSP,2013-01-27 13:59:00,
2013-01-27 09:02:00,7.7,2.6,30.47,NNW,337,0.0,0.0,79,0.00,,,0.00,WUHU21623XXSP,2013-01-27 14:02:00,
2013-01-27 09:04:00,7.9,2.7,30.47,NNW,337,0.0,0.0,79,0.00,,,0.00,WUHU21623XXSP,2013-01-27 14:04:00,
2013-01-27 09:06:00,7.9,2.7,30.47,NNW,337,0.0,0.0,79,0.00,,,0.00,WUHU21623XXSP,2013-01-27 14:06:00,
2013-01-27 09:08:00,7.9,2.4,30.47,NNW,337,0.0,0.0,78,0.00,,,0.00,WUHU21623XXSP,2013-01-27 14:08:00,
2013-01-27 09:10:00,8.1,2.6,30.47,NNW,337,0.0,0.0,78,0.00,,,0.00,WUHU21623XXSP,2013-01-27 14:10:00,
2013-01-27 09:12:00,7.9,2.4,30.47,NNW,337,0.0,0.0,78,0.00,,,0.00,WUHU21623XXSP,2013-01-27 14:12:00,
2013-01-27 09:14:00,8.1,2.6,30.47,NNW,337,0.0,0.0,78,0.00,,,0.00,WUHU21623XXSP,2013-01-27 14:14:00,
2013-01-27 09:16:00,8.4,3.0,30.47,NNW,337,0.0,0.0,78,0.00,,,0.00,WUHU21623XXSP,2013-01-27 14:16:00,
2013-01-27 09:19:00,8.8,3.3,30.47,NNW,337,0.0,0.0,78,0.00,,,0.00,WUHU21623XXSP,2013-01-27 14:19:00,
2013-01-27 09:21:00,9.3,3.8,30.48,NNW,337,0.0,0.0,78,0.00,,,0.00,WUHU21623XXSP,2013-01-27 14:21:00,
2013-01-27 09:23:00,9.7,3.8,30.48,NNW,337,0.0,0.0,77,0.00,,,0.00,WUHU21623XXSP,2013-01-27 14:23:00,
2013-01-27 09:25:00,10.2,4.0,30.48,NNW,337,0.0,0.0,76,0.00,,,0.00,WUHU21623XXSP,2013-01-27 14:25:00,
2013-01-27 09:27:00,10.6,4.4,30.48,NNW,337,0.0,0.0,76,0.00,,,0.00,WUHU21623XXSP,2013-01-27 14:27:00,
2013-01-27 09:29:00,11.1,4.9,30.48,NNW,337,0.0,0.0,76,0.00,,,0.00,WUHU21623XXSP,2013-01-27 14:29:00,
2013-01-27 09:32:00,11.8,5.6,30.48,NNW,337,0.0,0.0,76,0.00,,,0.00,WUHU21623XXSP,2013-01-27 14:32:00,
2013-01-27 09:34:00,12.2,5.7,30.48,NNW,337,0.0,0.0,75,0.00,,,0.00,WUHU21623XXSP,2013-01-27 14:34:00,
2013-01-27 09:36:00,12.7,6.3,30.48,NNW,337,0.0,0.0,75,0.00,,,0.00,WUHU21623XXSP,2013-01-27 14:36:00,
2013-01-27 09:38:00,13.5,6.7,30.48,NNW,337,0.0,0.0,74,0.00,,,0.00,WUHU21623XXSP,2013-01-27 14:38:00,
2013-01-27 09:40:00,13.6,6.3,30.48,NNW,337,0.0,0.0,72,0.00,,,0.00,WUHU21623XXSP,2013-01-27 14:40:00,
2013-01-27 09:42:00,13.6,6.0,30.48,NNW,337,0.0,0.0,71,0.00,,,0.00,WUHU21623XXSP,2013-01-27 14:42:00,
2013-01-27 09:44:00,14.2,7.1,30.48,NNW,337,0.0,0.0,73,0.00,,,0.00,WUHU21623XXSP,2013-01-27 14:44:00,
2013-01-27 09:46:00,15.4,8.6,30.48,NNW,337,0.0,0.0,74,0.00,,,0.00,WUHU21623XXSP,2013-01-27 14:46:00,
2013-01-27 09:49:00,15.8,8.6,30.48,NNW,337,0.0,0.0,73,0.00,,,0.00,WUHU21623XXSP,2013-01-27 14:49:00,
2013-01-27 09:51:00,15.8,8.3,30.48,NNW,337,0.0,0.0,72,0.00,,,0.00,WUHU21623XXSP,2013-01-27 14:51:00,
2013-01-27 09:53:00,16.0,8.2,30.48,NNW,337,0.0,0.0,71,0.00,,,0.00,WUHU21623XXSP,2013-01-27 14:53:00,
2013-01-27 09:55:00,16.0,7.5,30.48,NNW,337,0.0,0.0,69,0.00,,,0.00,WUHU21623XXSP,2013-01-27 14:55:00,
2013-01-27 09:57:00,16.5,8.7,30.48,NNW,337,0.0,0.0,71,0.00,,,0.00,WUHU21623XXSP,2013-01-27 14:57:00,
2013-01-27 09:59:00,16.9,8.8,30.49,NNW,337,0.0,0.0,70,0.00,,,0.00,WUHU21623XXSP,2013-01-27 14:59:00,
2013-01-27 10:01:00,16.7,8.6,30.49,NNW,337,0.0,0.0,70,0.00,,,0.00,WUHU21623XXSP,2013-01-27 15:01:00,
2013-01-27 10:04:00,16.9,8.8,30.49,NNW,337,0.0,0.0,70,0.00,,,0.00,WUHU21623XXSP,2013-01-27 15:04:00,
2013-01-27 10:06:00,17.2,8.8,30.49,NNW,337,0.0,0.0,69,0.00,,,0.00,WUHU21623XXSP,2013-01-27 15:06:00,
2013-01-27 10:08:00,17.2,8.8,30.49,NNW,337,0.0,0.0,69,0.00,,,0.00,WUHU21623XXSP,2013-01-27 15:08:00,
2013-01-27 10:10:00,17.2,8.5,30.49,NNW,337,0.0,0.0,68,0.00,,,0.00,WUHU21623XXSP,2013-01-27 15:10:00,
2013-01-27 10:12:00,17.2,8.1,30.49,NW,315,1.6,1.6,67,0.00,,,0.00,WUHU21623XXSP,2013-01-27 15:12:00,
2013-01-27 10:14:00,16.9,6.7,30.49,West,270,0.0,1.6,64,0.00,,,0.00,WUHU21623XXSP,2013-01-27 15:14:00,
2013-01-27 10:16:00,16.9,7.8,30.49,West,270,0.0,1.6,67,0.00,,,0.00,WUHU21623XXSP,2013-01-27 15:16:00,
2013-01-27 10:19:00,17.4,8.3,30.49,West,270,0.0,1.6,67,0.00,,,0.00,WUHU21623XXSP,2013-01-27 15:19:00,
2013-01-27 10:21:00,18.1,9.3,30.49,West,270,0.0,1.6,68,0.00,,,0.00,WUHU21623XXSP,2013-01-27 15:21:00,
2013-01-27 10:23:00,18.7,9.8,30.49,West,270,0.0,0.0,68,0.00,,,0.00,WUHU21623XXSP,2013-01-27 15:23:00,
2013-01-27 10:25:00,18.7,9.8,30.49,NNW,337,0.0,0.0,68,0.00,,,0.00,WUHU21623XXSP,2013-01-27 15:25:00,
2013-01-27 10:27:00,18.9,9.3,30.48,NNW,337,0.0,0.0,66,0.00,,,0.00,WUHU21623XXSP,2013-01-27 15:27:00,
2013-01-27 10:29:00,19.4,10.1,30.48,NNW,337,0.0,0.0,67,0.00,,,0.00,WUHU21623XXSP,2013-01-27 15:29:00,
2013-01-27 10:31:00,19.9,9.9,30.49,NNW,337,0.0,0.0,65,0.00,,,0.00,WUHU21623XXSP,2013-01-27 15:31:00,
2013-01-27 10:34:00,19.2,8.2,30.49,North,0,7.6,7.6,62,0.00,,,0.00,WUHU21623XXSP,2013-01-27 15:34:00,
2013-01-27 10:36:00,18.3,7.4,30.48,North,0,0.7,7.6,62,0.00,,,0.00,WUHU21623XXSP,2013-01-27 15:36:00,
2013-01-27 10:38:00,17.8,5.4,30.49,WNW,292,4.0,7.6,58,0.00,,,0.00,WUHU21623XXSP,2013-01-27 15:38:00,
2013-01-27 10:40:00,17.8,5.4,30.48,WNW,292,1.8,7.6,58,0.00,,,0.00,WUHU21623XXSP,2013-01-27 15:40:00,
2013-01-27 10:42:00,17.2,4.5,30.48,NW,315,5.4,7.6,57,0.00,,,0.00,WUHU21623XXSP,2013-01-27 15:42:00,
2013-01-27 10:44:00,16.7,4.0,30.48,NW,315,0.0,5.4,57,0.00,,,0.00,WUHU21623XXSP,2013-01-27 15:44:00,
2013-01-27 10:46:00,16.7,4.0,30.49,NW,315,2.2,5.4,57,0.00,,,0.00,WUHU21623XXSP,2013-01-27 15:46:00,
2013-01-27 10:49:00,16.5,3.8,30.48,NW,315,3.4,5.4,57,0.00,,,0.00,WUHU21623XXSP,2013-01-27 15:49:00,
2013-01-27 10:51:00,16.7,4.0,30.48,NW,315,4.9,5.4,57,0.00,,,0.00,WUHU21623XXSP,2013-01-27 15:51:00,
2013-01-27 10:53:00,16.5,3.8,30.48,NW,315,3.4,4.9,57,0.00,,,0.00,WUHU21623XXSP,2013-01-27 15:53:00,
2013-01-27 10:55:00,16.3,3.3,30.48,WNW,292,4.9,4.9,56,0.00,,,0.00,WUHU21623XXSP,2013-01-27 15:55:00,
2013-01-27 10:57:00,16.3,2.9,30.48,WNW,292,4.0,4.9,55,0.00,,,0.00,WUHU21623XXSP,2013-01-27 15:57:00,
2013-01-27 10:59:00,16.5,3.1,30.49,NW,315,4.9,4.9,55,0.00,,,0.00,WUHU21623XXSP,2013-01-27 15:59:00,
2013-01-27 11:01:00,16.5,3.5,30.49,NW,315,0.0,4.9,56,0.00,,,0.00,WUHU21623XXSP,2013-01-27 16:01:00,
2013-01-27 11:03:00,16.7,3.2,30.49,NW,315,2.5,4.9,55,0.00,,,0.00,WUHU21623XXSP,2013-01-27 16:03:00,
2013-01-27 11:05:00,16.3,3.3,30.49,West,270,0.2,4.9,56,0.00,,,0.00,WUHU21623XXSP,2013-01-27 16:05:00,
2013-01-27 11:08:00,16.7,3.6,30.49,NW,315,0.0,4.9,56,0.00,,,0.00,WUHU21623XXSP,2013-01-27 16:08:00,
2013-01-27 11:10:00,16.9,3.4,30.49,West,270,2.0,2.5,55,0.00,,,0.00,WUHU21623XXSP,2013-01-27 16:10:00,
2013-01-27 11:12:00,16.3,3.3,30.49,West,270,6.3,6.3,56,0.00,,,0.00,WUHU21623XXSP,2013-01-27 16:12:00,
2013-01-27 11:14:00,16.7,3.6,30.49,NW,315,4.7,6.3,56,0.00,,,0.00,WUHU21623XXSP,2013-01-27 16:14:00,
2013-01-27 11:16:00,16.5,3.5,30.49,WNW,292,5.1,6.3,56,0.00,,,0.00,WUHU21623XXSP,2013-01-27 16:16:00,
2013-01-27 11:18:00,17.2,4.1,30.49,SSW,202,4.9,6.3,56,0.00,,,0.00,WUHU21623XXSP,2013-01-27 16:18:00,
2013-01-27 11:21:00,17.8,4.3,30.49,SW,225,4.3,6.3,55,0.00,,,0.00,WUHU21623XXSP,2013-01-27 16:21:00,
2013-01-27 11:23:00,17.8,4.3,30.49,WSW,247,2.9,5.1,55,0.00,,,0.00,WUHU21623XXSP,2013-01-27 16:23:00,
2013-01-27 11:25:00,17.4,3.5,30.49,SW,225,4.0,5.1,54,0.00,,,0.00,WUHU21623XXSP,2013-01-27 16:25:00,
2013-01-27 11:27:00,17.4,3.5,30.49,SW,225,6.3,6.3,54,0.00,,,0.00,WUHU21623XXSP,2013-01-27 16:27:00,
2013-01-27 11:29:00,18.0,4.4,30.49,SW,225,6.9,6.9,55,0.00,,,0.00,WUHU21623XXSP,2013-01-27 16:29:00,
2013-01-27 11:31:00,18.1,4.6,30.48,West,270,2.0,6.9,55,0.00,,,0.00,WUHU21623XXSP,2013-01-27 16:31:00,
2013-01-27 11:33:00,18.1,4.2,30.49,WSW,247,6.7,6.9,54,0.00,,,0.00,WUHU21623XXSP,2013-01-27 16:33:00,
2013-01-27 11:35:00,17.8,4.3,30.49,West,270,1.8,6.9,55,0.00,,,0.00,WUHU21623XXSP,2013-01-27 16:35:00,
2013-01-27 11:38:00,17.8,4.3,30.49,WSW,247,7.4,7.4,55,0.00,,,0.00,WUHU21623XXSP,2013-01-27 16:38:00,
2013-01-27 11:40:00,18.1,4.6,30.49,WSW,247,4.0,7.4,55,0.00,,,0.00,WUHU21623XXSP,2013-01-27 16:40:00,
2013-01-27 11:42:00,18.5,4.5,30.48,WSW,247,0.0,7.4,54,0.00,,,0.00,WUHU21623XXSP,2013-01-27 16:42:00,
2013-01-27 11:44:00,18.1,4.2,30.48,West,270,4.5,7.4,54,0.00,,,0.00,WUHU21623XXSP,2013-01-27 16:44:00,
2013-01-27 11:46:00,18.5,4.9,30.48,SSW,202,4.5,7.4,55,0.00,,,0.00,WUHU21623XXSP,2013-01-27 16:46:00,
2013-01-27 11:48:00,19.0,5.0,30.48,SW,225,0.0,4.5,54,0.00,,,0.00,WUHU21623XXSP,2013-01-27 16:48:00,
2013-01-27 11:50:00,19.6,5.1,30.48,WSW,247,4.0,4.5,53,0.00,,,0.00,WUHU21623XXSP,2013-01-27 16:50:00,
2013-01-27 11:53:00,19.9,5.0,30.48,South,180,5.4,5.4,52,0.00,,,0.00,WUHU21623XXSP,2013-01-27 16:53:00,
2013-01-27 11:55:00,19.9,5.0,30.47,South,180,3.6,5.4,52,0.00,,,0.00,WUHU21623XXSP,2013-01-27 16:55:00,
2013-01-27 11:57:00,20.1,4.8,30.47,SSW,202,5.4,5.4,51,0.00,,,0.00,WUHU21623XXSP,2013-01-27 16:57:00,
2013-01-27 11:59:00,20.1,4.8,30.47,SW,225,4.3,5.4,51,0.00,,,0.00,WUHU21623XXSP,2013-01-27 16:59:00,
2013-01-27 12:01:00,20.8,5.8,30.47,WSW,247,3.4,5.4,52,0.00,,,0.00,WUHU21623XXSP,2013-01-27 17:01:00,
2013-01-27 12:03:00,20.8,5.0,30.46,NNW,337,4.9,5.4,50,0.00,,,0.00,WUHU21623XXSP,2013-01-27 17:03:00,
2013-01-27 12:05:00,20.1,3.9,30.46,NW,315,4.0,5.4,49,0.00,,,0.00,WUHU21623XXSP,2013-01-27 17:05:00,
2013-01-27 12:08:00,19.9,3.8,30.46,West,270,3.8,4.9,49,0.00,,,0.00,WUHU21623XXSP,2013-01-27 17:08:00,
2013-01-27 12:10:00,19.8,3.1,30.46,West,270,3.8,4.9,48,0.00,,,0.00,WUHU21623XXSP,2013-01-27 17:10:00,
2013-01-27 12:12:00,19.6,3.0,30.46,NNW,337,6.3,6.3,48,0.00,,,0.00,WUHU21623XXSP,2013-01-27 17:12:00,
2013-01-27 12:14:00,19.2,2.6,30.45,NW,315,2.9,6.3,48,0.00,,,0.00,WUHU21623XXSP,2013-01-27 17:14:00,
2013-01-27 12:16:00,19.0,2.0,30.45,North,0,6.9,6.9,47,0.00,,,0.00,WUHU21623XXSP,2013-01-27 17:16:00,
2013-01-27 12:18:00,18.9,2.8,30.45,North,0,0.7,6.9,49,0.00,,,0.00,WUHU21623XXSP,2013-01-27 17:18:00,
2013-01-27 12:20:00,19.0,2.5,30.45,NW,315,4.0,6.9,48,0.00,,,0.00,WUHU21623XXSP,2013-01-27 17:20:00,
2013-01-27 12:23:00,19.6,3.0,30.45,NW,315,0.0,6.9,48,0.00,,,0.00,WUHU21623XXSP,2013-01-27 17:23:00,
2013-01-27 12:25:00,19.8,3.1,30.44,North,0,2.7,6.9,48,0.00,,,0.00,WUHU21623XXSP,2013-01-27 17:25:00,
2013-01-27 12:27:00,19.9,3.3,30.44,NNW,337,0.0,4.0,48,0.00,,,0.00,WUHU21623XXSP,2013-01-27 17:27:00,
2013-01-27 12:29:00,21.0,4.7,30.44,NNW,337,0.0,4.0,49,0.00,,,0.00,WUHU21623XXSP,2013-01-27 17:29:00,
2013-01-27 12:31:00,21.9,4.6,30.44,NNW,337,2.5,2.7,47,0.00,,,0.00,WUHU21623XXSP,2013-01-27 17:31:00,
2013-01-27 12:33:00,21.7,3.5,30.44,West,270,3.4,3.4,45,0.00,,,0.00,WUHU21623XXSP,2013-01-27 17:33:00,
2013-01-27 12:35:00,21.0,2.9,30.44,West,270,1.6,3.4,45,0.00,,,0.00,WUHU21623XXSP,2013-01-27 17:35:00,
2013-01-27 12:37:00,21.0,2.9,30.44,WNW,292,1.1,3.4,45,0.00,,,0.00,WUHU21623XXSP,2013-01-27 17:37:00,
2013-01-27 12:40:00,21.0,3.3,30.44,NNW,337,2.9,3.4,46,0.00,,,0.00,WUHU21623XXSP,2013-01-27 17:40:00,
2013-01-27 12:42:00,20.5,2.8,30.44,WNW,292,5.6,5.6,46,0.00,,,0.00,WUHU21623XXSP,2013-01-27 17:42:00,
2013-01-27 12:44:00,20.1,2.0,30.44,West,270,7.2,7.2,45,0.00,,,0.00,WUHU21623XXSP,2013-01-27 17:44:00,
2013-01-27 12:46:00,19.6,1.6,30.44,WNW,292,7.6,7.6,45,0.00,,,0.00,WUHU21623XXSP,2013-01-27 17:46:00,
2013-01-27 12:48:00,19.6,1.6,30.45,NW,315,7.6,7.6,45,0.00,,,0.00,WUHU21623XXSP,2013-01-27 17:48:00,
2013-01-27 12:50:00,19.6,2.0,30.45,WNW,292,4.7,7.6,46,0.00,,,0.00,WUHU21623XXSP,2013-01-27 17:50:00,
2013-01-27 12:52:00,19.6,2.0,30.45,West,270,3.4,7.6,46,0.00,,,0.00,WUHU21623XXSP,2013-01-27 17:52:00,
2013-01-27 12:55:00,19.6,1.6,30.45,West,270,2.9,7.6,45,0.00,,,0.00,WUHU21623XXSP,2013-01-27 17:55:00,
2013-01-27 12:57:00,20.1,2.0,30.44,West,270,7.2,7.2,45,0.00,,,0.00,WUHU21623XXSP,2013-01-27 17:57:00,
2013-01-27 12:59:00,19.9,1.9,30.44,WNW,292,3.6,4.7,45,0.00,,,0.00,WUHU21623XXSP,2013-01-27 17:59:00,
2013-01-27 13:01:00,19.9,1.9,30.44,NW,315,6.0,6.0,45,0.00,,,0.00,WUHU21623XXSP,2013-01-27 18:01:00,
2013-01-27 13:03:00,19.9,1.9,30.44,WSW,247,3.6,6.0,45,0.00,,,0.00,WUHU21623XXSP,2013-01-27 18:03:00,
2013-01-27 13:05:00,20.1,1.6,30.44,WSW,247,2.7,6.0,44,0.00,,,0.00,WUHU21623XXSP,2013-01-27 18:05:00,
2013-01-27 13:07:00,20.3,2.2,30.44,WSW,247,4.9,6.0,45,0.00,,,0.00,WUHU21623XXSP,2013-01-27 18:07:00,
2013-01-27 13:10:00,20.1,2.0,30.44,WSW,247,4.7,6.0,45,0.00,,,0.00,WUHU21623XXSP,2013-01-27 18:10:00,
2013-01-27 13:12:00,19.9,1.9,30.44,WSW,247,4.3,4.9,45,0.00,,,0.00,WUHU21623XXSP,2013-01-27 18:12:00,
2013-01-27 13:14:00,20.3,2.2,30.44,WSW,247,1.3,4.9,45,0.00,,,0.00,WUHU21623XXSP,2013-01-27 18:14:00,
2013-01-27 13:16:00,19.9,1.9,30.44,WSW,247,7.4,7.4,45,0.00,,,0.00,WUHU21623XXSP,2013-01-27 18:16:00,
2013-01-27 13:18:00,19.9,1.9,30.44,WSW,247,6.3,7.4,45,0.00,,,0.00,WUHU21623XXSP,2013-01-27 18:18:00,
2013-01-27 13:20:00,19.9,1.9,30.44,WSW,247,0.0,7.4,45,0.00,,,0.00,WUHU21623XXSP,2013-01-27 18:20:00,
2013-01-27 13:22:00,20.8,3.2,30.44,WSW,247,0.0,7.4,46,0.00,,,0.00,WUHU21623XXSP,2013-01-27 18:22:00,
2013-01-27 13:25:00,21.0,2.4,30.44,WSW,247,3.6,7.4,44,0.00,,,0.00,WUHU21623XXSP,2013-01-27 18:25:00,
2013-01-27 13:27:00,21.0,2.9,30.44,WSW,247,7.8,7.8,45,0.00,,,0.00,WUHU21623XXSP,2013-01-27 18:27:00,
2013-01-27 13:29:00,20.8,2.2,30.44,WSW,247,6.7,7.8,44,0.00,,,0.00,WUHU21623XXSP,2013-01-27 18:29:00,
2013-01-27 13:31:00,21.0,2.4,30.44,WSW,247,6.7,7.8,44,0.00,,,0.00,WUHU21623XXSP,2013-01-27 18:31:00,
2013-01-27 13:33:00,20.5,1.9,30.44,WSW,247,4.0,7.8,44,0.00,,,0.00,WUHU21623XXSP,2013-01-27 18:33:00,
2013-01-27 13:35:00,20.5,1.9,30.43,WSW,247,6.7,7.8,44,0.00,,,0.00,WUHU21623XXSP,2013-01-27 18:35:00,
2013-01-27 13:37:00,20.3,1.7,30.44,WSW,247,2.5,6.7,44,0.00,,,0.00,WUHU21623XXSP,2013-01-27 18:37:00,
2013-01-27 13:40:00,20.8,2.7,30.44,WSW,247,0.0,6.7,45,0.00,,,0.00,WUHU21623XXSP,2013-01-27 18:40:00,
2013-01-27 13:42:00,21.4,2.2,30.44,WSW,247,5.4,6.7,43,0.00,,,0.00,WUHU21623XXSP,2013-01-27 18:42:00,
2013-01-27 13:44:00,21.0,1.9,30.44,WSW,247,3.4,6.7,43,0.00,,,0.00,WUHU21623XXSP,2013-01-27 18:44:00,
2013-01-27 13:46:00,20.8,1.8,30.44,WSW,247,5.6,5.6,43,0.00,,,0.00,WUHU21623XXSP,2013-01-27 18:46:00,
2013-01-27 13:48:00,21.0,1.9,30.44,SW,225,7.4,7.4,43,0.00,,,0.00,WUHU21623XXSP,2013-01-27 18:48:00,
2013-01-27 13:50:00,21.6,2.4,30.44,WSW,247,2.7,7.4,43,0.00,,,0.00,WUHU21623XXSP,2013-01-27 18:50:00,
2013-01-27 13:52:00,21.4,1.8,30.44,WSW,247,5.4,7.4,42,0.00,,,0.00,WUHU21623XXSP,2013-01-27 18:52:00,
2013-01-27 13:55:00,20.8,1.3,30.43,WSW,247,2.9,7.4,42,0.00,,,0.00,WUHU21623XXSP,2013-01-27 18:55:00,
2013-01-27 13:57:00,21.0,2.4,30.43,WSW,247,0.0,7.4,44,0.00,,,0.00,WUHU21623XXSP,2013-01-27 18:57:00,
2013-01-27 13:59:00,21.0,1.5,30.43,WSW,247,4.3,5.4,42,0.00,,,0.00,WUHU21623XXSP,2013-01-27 18:59:00,
2013-01-27 14:01:00,21.0,1.5,30.43,WSW,247,5.4,5.4,42,0.00,,,0.00,WUHU21623XXSP,2013-01-27 19:01:00,
2013-01-27 14:03:00,21.4,1.8,30.44,WSW,247,2.9,5.4,42,0.00,,,0.00,WUHU21623XXSP,2013-01-27 19:03:00,
2013-01-27 14:05:00,21.4,1.8,30.44,WSW,247,0.0,5.4,42,0.00,,,0.00,WUHU21623XXSP,2013-01-27 19:05:00,
2013-01-27 14:07:00,21.9,2.3,30.44,WSW,247,0.0,5.4,42,0.00,,,0.00,WUHU21623XXSP,2013-01-27 19:07:00,
2013-01-27 14:09:00,21.7,1.6,30.44,WSW,247,4.9,5.4,41,0.00,,,0.00,WUHU21623XXSP,2013-01-27 19:09:00,
2013-01-27 14:12:00,21.9,1.8,30.44,WSW,247,3.1,4.9,41,0.00,,,0.00,WUHU21623XXSP,2013-01-27 19:12:00,
2013-01-27 14:14:00,21.9,1.8,30.44,WSW,247,6.7,6.7,41,0.00,,,0.00,WUHU21623XXSP,2013-01-27 19:14:00,
2013-01-27 14:16:00,21.4,1.8,30.44,WSW,247,4.0,6.7,42,0.00,,,0.00,WUHU21623XXSP,2013-01-27 19:16:00,
2013-01-27 14:18:00,21.6,1.9,30.44,WSW,247,4.9,6.7,42,0.00,,,0.00,WUHU21623XXSP,2013-01-27 19:18:00,
2013-01-27 14:20:00,21.4,1.8,30.44,WSW,247,4.0,6.7,42,0.00,,,0.00,WUHU21623XXSP,2013-01-27 19:20:00,
2013-01-27 14:22:00,21.4,1.8,30.45,WSW,247,6.9,6.9,42,0.00,,,0.00,WUHU21623XXSP,2013-01-27 19:22:00,
2013-01-27 14:25:00,21.4,2.2,30.45,WSW,247,8.1,8.1,43,0.00,,,0.00,WUHU21623XXSP,2013-01-27 19:25:00,
2013-01-27 14:27:00,21.0,1.9,30.46,WSW,247,3.6,8.1,43,0.00,,,0.00,WUHU21623XXSP,2013-01-27 19:27:00,
2013-01-27 14:29:00,20.8,2.2,30.46,WSW,247,9.4,9.4,44,0.00,,,0.00,WUHU21623XXSP,2013-01-27 19:29:00,
2013-01-27 14:31:00,20.7,2.1,30.46,WSW,247,5.6,9.4,44,0.00,,,0.00,WUHU21623XXSP,2013-01-27 19:31:00,
2013-01-27 14:33:00,20.7,2.5,30.45,WSW,247,2.0,9.4,45,0.00,,,0.00,WUHU21623XXSP,2013-01-27 19:33:00,
2013-01-27 14:35:00,21.0,2.9,30.45,WSW,247,6.9,9.4,45,0.00,,,0.00,WUHU21623XXSP,2013-01-27 19:35:00,
2013-01-27 14:37:00,20.8,2.2,30.46,WSW,247,6.5,9.4,44,0.00,,,0.00,WUHU21623XXSP,2013-01-27 19:37:00,
2013-01-27 14:39:00,20.8,2.7,30.45,WSW,247,5.4,6.9,45,0.00,,,0.00,WUHU21623XXSP,2013-01-27 19:39:00,
2013-01-27 14:42:00,20.8,2.7,30.46,WSW,247,8.3,8.3,45,0.00,,,0.00,WUHU21623XXSP,2013-01-27 19:42:00,
2013-01-27 14:44:00,20.5,2.8,30.46,WSW,247,8.1,8.3,46,0.00,,,0.00,WUHU21623XXSP,2013-01-27 19:44:00,
2013-01-27 14:46:00,20.5,2.4,30.46,WSW,247,9.4,9.4,45,0.00,,,0.00,WUHU21623XXSP,2013-01-27 19:46:00,
2013-01-27 14:48:00,20.5,2.4,30.45,WSW,247,8.5,9.4,45,0.00,,,0.00,WUHU21623XXSP,2013-01-27 19:48:00,
2013-01-27 14:50:00,20.8,3.2,30.45,WSW,247,5.1,9.4,46,0.00,,,0.00,WUHU21623XXSP,2013-01-27 19:50:00,
2013-01-27 14:52:00,20.8,3.2,30.45,WSW,247,1.3,9.4,46,0.00,,,0.00,WUHU21623XXSP,2013-01-27 19:52:00,
2013-01-27 14:54:00,21.0,3.3,30.45,WSW,247,2.2,9.4,46,0.00,,,0.00,WUHU21623XXSP,2013-01-27 19:54:00,
2013-01-27 14:57:00,21.4,3.6,30.45,WSW,247,10.1,10.1,46,0.00,,,0.00,WUHU21623XXSP,2013-01-27 19:57:00,
2013-01-27 14:59:00,21.4,3.2,30.45,WSW,247,3.6,10.1,45,0.00,,,0.00,WUHU21623XXSP,2013-01-27 19:59:00,
2013-01-27 15:01:00,21.9,3.7,30.45,WSW,247,5.8,10.1,45,0.00,,,0.00,WUHU21623XXSP,2013-01-27 20:01:00,
2013-01-27 15:03:00,22.1,3.9,30.45,WSW,247,0.9,10.1,45,0.00,,,0.00,WUHU21623XXSP,2013-01-27 20:03:00,
2013-01-27 15:05:00,21.9,3.7,30.45,WSW,247,5.8,10.1,45,0.00,,,0.00,WUHU21623XXSP,2013-01-27 20:05:00,
2013-01-27 15:07:00,21.9,3.7,30.45,WSW,247,6.9,6.9,45,0.00,,,0.00,WUHU21623XXSP,2013-01-27 20:07:00,
2013-01-27 15:09:00,21.9,3.7,30.45,WSW,247,3.1,6.9,45,0.00,,,0.00,WUHU21623XXSP,2013-01-27 20:09:00,
2013-01-27 15:12:00,22.3,3.6,30.45,WSW,247,0.0,6.9,44,0.00,,,0.00,WUHU21623XXSP,2013-01-27 20:12:00,
2013-01-27 15:14:00,22.6,3.9,30.45,WSW,247,6.9,6.9,44,0.00,,,0.00,WUHU21623XXSP,2013-01-27 20:14:00,
2013-01-27 15:16:00,22.3,3.6,30.45,WSW,247,7.6,7.6,44,0.00,,,0.00,WUHU21623XXSP,2013-01-27 20:16:00,
2013-01-27 15:18:00,21.9,3.2,30.45,WSW,247,2.2,7.6,44,0.00,,,0.00,WUHU21623XXSP,2013-01-27 20:18:00,
2013-01-27 15:20:00,21.9,3.2,30.45,WSW,247,8.3,8.3,44,0.00,,,0.00,WUHU21623XXSP,2013-01-27 20:20:00,
2013-01-27 15:22:00,21.7,3.1,30.45,WSW,247,2.9,8.3,44,0.00,,,0.00,WUHU21623XXSP,2013-01-27 20:22:00,
2013-01-27 15:24:00,21.9,3.7,30.46,WSW,247,6.5,8.3,45,0.00,,,0.00,WUHU21623XXSP,2013-01-27 20:24:00,
2013-01-27 15:27:00,21.9,3.2,30.45,WSW,247,3.4,8.3,44,0.00,,,0.00,WUHU21623XXSP,2013-01-27 20:27:00,
2013-01-27 15:29:00,21.9,3.2,30.45,WSW,247,8.7,8.7,44,0.00,,,0.00,WUHU21623XXSP,2013-01-27 20:29:00,
2013-01-27 15:31:00,21.9,3.2,30.45,WSW,247,8.1,8.7,44,0.00,,,0.00,WUHU21623XXSP,2013-01-27 20:31:00,
2013-01-27 15:33:00,21.9,3.2,30.45,WSW,247,5.8,8.7,44,0.00,,,0.00,WUHU21623XXSP,2013-01-27 20:33:00,
2013-01-27 15:35:00,21.7,3.5,30.45,WSW,247,2.7,8.7,45,0.00,,,0.00,WUHU21623XXSP,2013-01-27 20:35:00,
2013-01-27 15:37:00,21.4,3.2,30.45,WSW,247,2.0,8.7,45,0.00,,,0.00,WUHU21623XXSP,2013-01-27 20:37:00,
2013-01-27 15:39:00,21.4,3.2,30.45,WSW,247,1.3,8.1,45,0.00,,,0.00,WUHU21623XXSP,2013-01-27 20:39:00,
2013-01-27 15:41:00,21.4,3.6,30.45,WSW,247,2.2,5.8,46,0.00,,,0.00,WUHU21623XXSP,2013-01-27 20:41:00,
2013-01-27 15:44:00,21.6,3.8,30.46,WSW,247,0.0,2.7,46,0.00,,,0.00,WUHU21623XXSP,2013-01-27 20:44:00,
2013-01-27 15:46:00,21.4,3.6,30.45,WSW,247,5.1,5.1,46,0.00,,,0.00,WUHU21623XXSP,2013-01-27 20:46:00,
2013-01-27 15:48:00,21.4,3.6,30.45,WSW,247,3.4,5.1,46,0.00,,,0.00,WUHU21623XXSP,2013-01-27 20:48:00,
2013-01-27 15:50:00,21.4,3.6,30.46,WSW,247,4.5,5.1,46,0.00,,,0.00,WUHU21623XXSP,2013-01-27 20:50:00,
2013-01-27 15:52:00,21.4,3.6,30.46,WSW,247,5.4,5.4,46,0.00,,,0.00,WUHU21623XXSP,2013-01-27 20:52:00,
2013-01-27 15:55:00,21.0,3.3,30.45,WSW,247,3.6,5.4,46,0.00,,,0.00,WUHU21623XXSP,2013-01-27 20:55:00,
2013-01-27 15:57:00,21.0,3.3,30.45,WSW,247,2.9,5.4,46,0.00,,,0.00,WUHU21623XXSP,2013-01-27 20:57:00,
2013-01-27 15:59:00,21.0,3.3,30.45,WSW,247,4.7,5.4,46,0.00,,,0.00,WUHU21623XXSP,2013-01-27 20:59:00,
2013-01-27 16:01:00,20.8,3.2,30.45,West,270,2.9,5.4,46,0.00,,,0.00,WUHU21623XXSP,2013-01-27 21:01:00,
2013-01-27 16:03:00,20.8,3.2,30.45,WSW,247,0.0,4.7,46,0.00,,,0.00,WUHU21623XXSP,2013-01-27 21:03:00,
2013-01-27 16:05:00,21.0,3.8,30.44,WSW,247,0.0,4.7,47,0.00,,,0.00,WUHU21623XXSP,2013-01-27 21:05:00,
2013-01-27 16:07:00,20.8,3.2,30.44,West,270,0.0,4.7,46,0.00,,,0.00,WUHU21623XXSP,2013-01-27 21:07:00,
2013-01-27 16:09:00,20.5,3.3,30.44,West,270,0.0,2.9,47,0.00,,,0.00,WUHU21623XXSP,2013-01-27 21:09:00,
2013-01-27 16:11:00,19.8,2.7,30.45,West,270,3.8,3.8,47,0.00,,,0.00,WUHU21623XXSP,2013-01-27 21:11:00,
2013-01-27 16:14:00,19.4,2.8,30.45,West,270,1.3,3.8,48,0.00,,,0.00,WUHU21623XXSP,2013-01-27 21:14:00,
2013-01-27 16:16:00,19.0,2.9,30.45,WNW,292,0.7,3.8,49,0.00,,,0.00,WUHU21623XXSP,2013-01-27 21:16:00,
2013-01-27 16:18:00,18.5,2.5,30.45,WNW,292,2.7,3.8,49,0.00,,,0.00,WUHU21623XXSP,2013-01-27 21:18:00,
2013-01-27 16:20:00,18.3,2.8,30.45,WNW,292,0.0,3.8,50,0.00,,,0.00,WUHU21623XXSP,2013-01-27 21:20:00,
2013-01-27 16:22:00,18.1,2.6,30.45,WNW,292,0.0,2.7,50,0.00,,,0.00,WUHU21623XXSP,2013-01-27 21:22:00,
2013-01-27 16:24:00,18.0,2.4,30.45,WNW,292,0.0,2.7,50,0.00,,,0.00,WUHU21623XXSP,2013-01-27 21:24:00,
2013-01-27 16:27:00,17.8,2.3,30.46,WNW,292,0.0,2.7,50,0.00,,,0.00,WUHU21623XXSP,2013-01-27 21:27:00,
2013-01-27 16:29:00,17.4,2.3,30.46,WNW,292,0.0,0.0,51,0.00,,,0.00,WUHU21623XXSP,2013-01-27 21:29:00,
2013-01-27 16:31:00,17.4,2.3,30.46,WNW,292,0.0,0.0,51,0.00,,,0.00,WUHU21623XXSP,2013-01-27 21:31:00,
2013-01-27 16:33:00,17.4,2.3,30.46,WNW,292,0.0,0.0,51,0.00,,,0.00,WUHU21623XXSP,2013-01-27 21:33:00,
2013-01-27 16:35:00,17.2,2.2,30.46,WNW,292,0.0,0.0,51,0.00,,,0.00,WUHU21623XXSP,2013-01-27 21:35:00,
2013-01-27 16:37:00,17.2,2.6,30.46,WNW,292,0.0,0.0,52,0.00,,,0.00,WUHU21623XXSP,2013-01-27 21:37:00,
2013-01-27 16:39:00,17.2,2.6,30.46,WNW,292,0.0,0.0,52,0.00,,,0.00,WUHU21623XXSP,2013-01-27 21:39:00,
2013-01-27 16:41:00,16.9,2.2,30.46,WNW,292,1.1,1.1,52,0.00,,,0.00,WUHU21623XXSP,2013-01-27 21:41:00,
2013-01-27 16:44:00,17.2,2.6,30.46,WNW,292,0.0,1.1,52,0.00,,,0.00,WUHU21623XXSP,2013-01-27 21:44:00,
2013-01-27 16:46:00,17.2,2.6,30.47,WNW,292,0.0,1.1,52,0.00,,,0.00,WUHU21623XXSP,2013-01-27 21:46:00,
2013-01-27 16:48:00,17.2,3.0,30.46,WNW,292,0.0,1.1,53,0.00,,,0.00,WUHU21623XXSP,2013-01-27 21:48:00,
2013-01-27 16:50:00,17.2,3.0,30.46,WNW,292,0.0,1.1,53,0.00,,,0.00,WUHU21623XXSP,2013-01-27 21:50:00,
2013-01-27 16:52:00,17.2,3.0,30.46,West,270,0.0,0.0,53,0.00,,,0.00,WUHU21623XXSP,2013-01-27 21:52:00,
2013-01-27 16:54:00,17.4,3.1,30.46,WSW,247,0.0,0.0,53,0.00,,,0.00,WUHU21623XXSP,2013-01-27 21:54:00,
2013-01-27 16:56:00,17.4,3.1,30.46,WSW,247,0.0,0.0,53,0.00,,,0.00,WUHU21623XXSP,2013-01-27 21:56:00,
2013-01-27 16:59:00,17.6,3.3,30.46,WSW,247,3.4,3.4,53,0.00,,,0.00,WUHU21623XXSP,2013-01-27 21:59:00,
2013-01-27 17:01:00,17.8,3.5,30.45,WSW,247,0.0,3.4,53,0.00,,,0.00,WUHU21623XXSP,2013-01-27 22:01:00,
2013-01-27 17:03:00,17.8,3.5,30.45,WSW,247,0.0,3.4,53,0.00,,,0.00,WUHU21623XXSP,2013-01-27 22:03:00,
2013-01-27 17:05:00,17.8,3.5,30.45,WSW,247,0.0,3.4,53,0.00,,,0.00,WUHU21623XXSP,2013-01-27 22:05:00,
2013-01-27 17:07:00,17.8,3.5,30.45,WSW,247,1.1,3.4,53,0.00,,,0.00,WUHU21623XXSP,2013-01-27 22:07:00,
2013-01-27 17:09:00,17.8,3.1,30.45,WSW,247,1.6,1.6,52,0.00,,,0.00,WUHU21623XXSP,2013-01-27 22:09:00,
2013-01-27 17:11:00,18.0,3.2,30.45,WSW,247,0.0,1.6,52,0.00,,,0.00,WUHU21623XXSP,2013-01-27 22:11:00,
2013-01-27 17:14:00,18.0,3.2,30.44,WSW,247,0.0,1.6,52,0.00,,,0.00,WUHU21623XXSP,2013-01-27 22:14:00,
2013-01-27 17:16:00,17.8,3.1,30.44,WSW,247,0.0,1.6,52,0.00,,,0.00,WUHU21623XXSP,2013-01-27 22:16:00,
2013-01-27 17:18:00,17.8,3.1,30.44,WSW,247,0.0,1.6,52,0.00,,,0.00,WUHU21623XXSP,2013-01-27 22:18:00,
2013-01-27 17:20:00,17.4,2.7,30.44,WSW,247,0.0,0.0,52,0.00,,,0.00,WUHU21623XXSP,2013-01-27 22:20:00,
2013-01-27 17:22:00,17.4,3.1,30.45,WSW,247,0.0,0.0,53,0.00,,,0.00,WUHU21623XXSP,2013-01-27 22:22:00,
2013-01-27 17:24:00,17.2,3.0,30.46,WSW,247,0.0,0.0,53,0.00,,,0.00,WUHU21623XXSP,2013-01-27 22:24:00,
2013-01-27 17:26:00,17.1,2.8,30.46,WSW,247,0.0,0.0,53,0.00,,,0.00,WUHU21623XXSP,2013-01-27 22:26:00,
2013-01-27 17:29:00,16.9,2.6,30.46,WSW,247,0.0,0.0,53,0.00,,,0.00,WUHU21623XXSP,2013-01-27 22:29:00,
2013-01-27 17:31:00,16.9,2.6,30.46,WSW,247,0.0,0.0,53,0.00,,,0.00,WUHU21623XXSP,2013-01-27 22:31:00,
2013-01-27 17:33:00,16.5,2.3,30.46,WSW,247,0.0,0.0,53,0.00,,,0.00,WUHU21623XXSP,2013-01-27 22:33:00,
2013-01-27 17:35:00,16.3,2.1,30.47,WSW,247,0.0,0.0,53,0.00,,,0.00,WUHU21623XXSP,2013-01-27 22:35:00,
2013-01-27 17:37:00,16.2,2.0,30.46,WSW,247,0.0,0.0,53,0.00,,,0.00,WUHU21623XXSP,2013-01-27 22:37:00,
2013-01-27 17:39:00,16.0,1.8,30.46,WSW,247,0.0,0.0,53,0.00,,,0.00,WUHU21623XXSP,2013-01-27 22:39:00,
2013-01-27 17:41:00,15.6,2.2,30.46,WSW,247,0.0,0.0,55,0.00,,,0.00,WUHU21623XXSP,2013-01-27 22:41:00,
2013-01-27 17:43:00,15.3,2.2,30.46,WSW,247,0.0,0.0,56,0.00,,,0.00,WUHU21623XXSP,2013-01-27 22:43:00,
2013-01-27 17:46:00,14.7,2.1,30.46,WSW,247,0.0,0.0,57,0.00,,,0.00,WUHU21623XXSP,2013-01-27 22:46:00,
2013-01-27 17:48:00,14.2,1.6,30.45,WSW,247,0.0,0.0,57,0.00,,,0.00,WUHU21623XXSP,2013-01-27 22:48:00,
2013-01-27 17:50:00,13.6,1.9,30.45,WSW,247,0.0,0.0,59,0.00,,,0.00,WUHU21623XXSP,2013-01-27 22:50:00,
2013-01-27 17:52:00,13.5,2.5,30.45,WSW,247,0.0,0.0,61,0.00,,,0.00,WUHU21623XXSP,2013-01-27 22:52:00,
2013-01-27 17:54:00,13.3,2.3,30.45,WSW,247,0.0,0.0,61,0.00,,,0.00,WUHU21623XXSP,2013-01-27 22:54:00,
2013-01-27 17:56:00,13.1,1.8,30.45,WSW,247,0.0,0.0,60,0.00,,,0.00,WUHU21623XXSP,2013-01-27 22:56:00,
2013-01-27 17:59:00,12.9,1.9,30.45,WSW,247,0.0,0.0,61,0.00,,,0.00,WUHU21623XXSP,2013-01-27 22:59:00,
2013-01-27 18:01:00,12.7,1.7,30.45,WSW,247,0.0,0.0,61,0.00,,,0.00,WUHU21623XXSP,2013-01-27 23:01:00,
2013-01-27 18:03:00,12.7,1.7,30.45,WSW,247,0.0,0.0,61,0.00,,,0.00,WUHU21623XXSP,2013-01-27 23:03:00,
2013-01-27 18:05:00,12.6,1.6,30.45,WSW,247,0.0,0.0,61,0.00,,,0.00,WUHU21623XXSP,2013-01-27 23:05:00,
2013-01-27 18:07:00,12.4,1.0,30.45,WSW,247,0.0,0.0,60,0.00,,,0.00,WUHU21623XXSP,2013-01-27 23:07:00,
2013-01-27 18:09:00,12.2,1.5,30.44,WSW,247,0.0,0.0,62,0.00,,,0.00,WUHU21623XXSP,2013-01-27 23:09:00,
2013-01-27 18:11:00,12.0,1.4,30.44,WSW,247,0.0,0.0,62,0.00,,,0.00,WUHU21623XXSP,2013-01-27 23:11:00,
2013-01-27 18:13:00,12.0,1.4,30.45,WSW,247,0.0,0.0,62,0.00,,,0.00,WUHU21623XXSP,2013-01-27 23:13:00,
2013-01-27 18:16:00,12.2,1.5,30.45,WSW,247,0.0,0.0,62,0.00,,,0.00,WUHU21623XXSP,2013-01-27 23:16:00,
2013-01-27 18:18:00,12.2,1.5,30.44,WSW,247,0.0,0.0,62,0.00,,,0.00,WUHU21623XXSP,2013-01-27 23:18:00,
2013-01-27 18:20:00,12.0,1.0,30.45,WSW,247,0.0,0.0,61,0.00,,,0.00,WUHU21623XXSP,2013-01-27 23:20:00,
2013-01-27 18:22:00,12.0,1.4,30.44,WSW,247,0.0,0.0,62,0.00,,,0.00,WUHU21623XXSP,2013-01-27 23:22:00,
2013-01-27 18:24:00,11.8,1.5,30.44,WSW,247,0.0,0.0,63,0.00,,,0.00,WUHU21623XXSP,2013-01-27 23:24:00,
2013-01-27 18:26:00,11.5,1.2,30.44,WSW,247,0.0,0.0,63,0.00,,,0.00,WUHU21623XXSP,2013-01-27 23:26:00,
2013-01-27 18:28:00,11.1,0.9,30.44,WSW,247,0.0,0.0,63,0.00,,,0.00,WUHU21623XXSP,2013-01-27 23:28:00,
2013-01-27 18:31:00,11.1,0.9,30.44,WSW,247,0.0,0.0,63,0.00,,,0.00,WUHU21623XXSP,2013-01-27 23:31:00,
2013-01-27 18:33:00,10.9,0.7,30.44,WSW,247,0.0,0.0,63,0.00,,,0.00,WUHU21623XXSP,2013-01-27 23:33:00,
2013-01-27 18:35:00,10.8,0.5,30.44,WSW,247,0.0,0.0,63,0.00,,,0.00,WUHU21623XXSP,2013-01-27 23:35:00,
2013-01-27 18:37:00,10.6,0.7,30.44,WSW,247,0.0,0.0,64,0.00,,,0.00,WUHU21623XXSP,2013-01-27 23:37:00,
2013-01-27 18:39:00,10.2,0.0,30.44,WSW,247,0.0,0.0,63,0.00,,,0.00,WUHU21623XXSP,2013-01-27 23:39:00,
2013-01-27 18:41:00,10.0,-0.1,30.44,WSW,247,0.0,0.0,63,0.00,,,0.00,WUHU21623XXSP,2013-01-27 23:41:00,
2013-01-27 18:43:00,9.7,-0.2,30.45,WSW,247,0.0,0.0,64,0.00,,,0.00,WUHU21623XXSP,2013-01-27 23:43:00,
2013-01-27 18:46:00,9.5,-0.3,30.45,WSW,247,0.0,0.0,64,0.00,,,0.00,WUHU21623XXSP,2013-01-27 23:46:00,
2013-01-27 18:48:00,9.3,-0.2,30.45,WSW,247,0.0,0.0,65,0.00,,,0.00,WUHU21623XXSP,2013-01-27 23:48:00,
2013-01-27 18:50:00,9.3,-0.2,30.45,WSW,247,0.0,0.0,65,0.00,,,0.00,WUHU21623XXSP,2013-01-27 23:50:00,
2013-01-27 18:52:00,9.1,0.0,30.44,WSW,247,0.0,0.0,66,0.00,,,0.00,WUHU21623XXSP,2013-01-27 23:52:00,
2013-01-27 18:54:00,9.1,0.0,30.44,WSW,247,0.0,0.0,66,0.00,,,0.00,WUHU21623XXSP,2013-01-27 23:54:00,
2013-01-27 18:56:00,9.1,0.0,30.44,WSW,247,0.0,0.0,66,0.00,,,0.00,WUHU21623XXSP,2013-01-27 23:56:00,
2013-01-27 18:58:00,9.1,0.0,30.44,WSW,247,0.0,0.0,66,0.00,,,0.00,WUHU21623XXSP,2013-01-27 23:58:00,
2013-01-27 19:01:00,9.3,0.8,30.43,WSW,247,0.0,0.0,68,0.00,,,0.00,WUHU21623XXSP,2013-01-28 00:01:00,
2013-01-27 19:03:00,9.5,1.3,30.43,WSW,247,0.0,0.0,69,0.00,,,0.00,WUHU21623XXSP,2013-01-28 00:03:00,
2013-01-27 19:05:00,10.0,2.2,30.43,WSW,247,0.0,0.0,70,0.00,,,0.00,WUHU21623XXSP,2013-01-28 00:05:00,
2013-01-27 19:07:00,10.0,1.8,30.43,WSW,247,0.0,0.0,69,0.00,,,0.00,WUHU21623XXSP,2013-01-28 00:07:00,
2013-01-27 19:09:00,10.2,2.0,30.44,WSW,247,0.0,0.0,69,0.00,,,0.00,WUHU21623XXSP,2013-01-28 00:09:00,
2013-01-27 19:11:00,10.4,1.8,30.44,WSW,247,0.0,0.0,68,0.00,,,0.00,WUHU21623XXSP,2013-01-28 00:11:00,
2013-01-27 19:13:00,10.6,2.0,30.44,WSW,247,0.0,0.0,68,0.00,,,0.00,WUHU21623XXSP,2013-01-28 00:13:00,
2013-01-27 19:16:00,10.6,2.0,30.44,WSW,247,0.0,0.0,68,0.00,,,0.00,WUHU21623XXSP,2013-01-28 00:16:00,
2013-01-27 19:18:00,10.8,2.5,30.44,WSW,247,0.0,0.0,69,0.00,,,0.00,WUHU21623XXSP,2013-01-28 00:18:00,
2013-01-27 19:20:00,11.1,3.2,30.44,WSW,247,0.0,0.0,70,0.00,,,0.00,WUHU21623XXSP,2013-01-28 00:20:00,
2013-01-27 19:22:00,11.3,3.4,30.44,WSW,247,0.0,0.0,70,0.00,,,0.00,WUHU21623XXSP,2013-01-28 00:22:00,
2013-01-27 19:24:00,11.7,3.7,30.44,WSW,247,0.0,0.0,70,0.00,,,0.00,WUHU21623XXSP,2013-01-28 00:24:00,
2013-01-27 19:26:00,11.8,3.6,30.44,WSW,247,0.0,0.0,69,0.00,,,0.00,WUHU21623XXSP,2013-01-28 00:26:00,
2013-01-27 19:28:00,12.0,3.8,30.44,WSW,247,0.0,0.0,69,0.00,,,0.00,WUHU21623XXSP,2013-01-28 00:28:00,
2013-01-27 19:30:00,12.4,4.1,30.44,SSE,157,0.0,0.0,69,0.00,,,0.00,WUHU21623XXSP,2013-01-28 00:30:00,
2013-01-27 19:33:00,12.7,4.5,30.43,SSE,157,0.0,0.0,69,0.00,,,0.00,WUHU21623XXSP,2013-01-28 00:33:00,
2013-01-27 19:35:00,12.7,4.5,30.43,SSE,157,0.0,0.0,69,0.00,,,0.00,WUHU21623XXSP,2013-01-28 00:35:00,
2013-01-27 19:37:00,12.9,4.7,30.42,SSE,157,3.6,3.6,69,0.00,,,0.00,WUHU21623XXSP,2013-01-28 00:37:00,
2013-01-27 19:39:00,13.3,5.0,30.42,SSE,157,0.0,3.6,69,0.00,,,0.00,WUHU21623XXSP,2013-01-28 00:39:00,
2013-01-27 19:41:00,13.3,4.7,30.42,SSE,157,0.0,3.6,68,0.00,,,0.00,WUHU21623XXSP,2013-01-28 00:41:00,
2013-01-27 19:43:00,13.6,5.0,30.42,SSE,157,0.0,3.6,68,0.00,,,0.00,WUHU21623XXSP,2013-01-28 00:43:00,
2013-01-27 19:45:00,13.8,4.9,30.42,SSE,157,0.0,3.6,67,0.00,,,0.00,WUHU21623XXSP,2013-01-28 00:45:00,
2013-01-27 19:48:00,14.0,5.1,30.42,SSE,157,0.0,0.0,67,0.00,,,0.00,WUHU21623XXSP,2013-01-28 00:48:00,
2013-01-27 19:50:00,14.2,5.2,30.42,SSE,157,0.0,0.0,67,0.00,,,0.00,WUHU21623XXSP,2013-01-28 00:50:00,
2013-01-27 19:52:00,14.2,5.2,30.42,SSE,157,0.0,0.0,67,0.00,,,0.00,WUHU21623XXSP,2013-01-28 00:52:00,
2013-01-27 19:54:00,14.2,5.2,30.43,SSE,157,0.0,0.0,67,0.00,,,0.00,WUHU21623XXSP,2013-01-28 00:54:00,
2013-01-27 19:56:00,14.4,5.4,30.43,SSE,157,0.0,0.0,67,0.00,,,0.00,WUHU21623XXSP,2013-01-28 00:56:00,
2013-01-27 19:58:00,14.4,5.4,30.43,SSE,157,0.0,0.0,67,0.00,,,0.00,WUHU21623XXSP,2013-01-28 00:58:00,
2013-01-27 20:00:00,14.4,5.0,30.43,SSE,157,0.0,0.0,66,0.00,,,0.00,WUHU21623XXSP,2013-01-28 01:00:00,
2013-01-27 20:03:00,14.4,5.4,30.43,SSE,157,0.0,0.0,67,0.00,,,0.00,WUHU21623XXSP,2013-01-28 01:03:00,
2013-01-27 20:05:00,14.5,5.9,30.43,SSE,157,0.0,0.0,68,0.00,,,0.00,WUHU21623XXSP,2013-01-28 01:05:00,
2013-01-27 20:07:00,14.5,5.9,30.42,SSE,157,0.0,0.0,68,0.00,,,0.00,WUHU21623XXSP,2013-01-28 01:07:00,
2013-01-27 20:09:00,14.5,5.9,30.42,SSE,157,0.0,0.0,68,0.00,,,0.00,WUHU21623XXSP,2013-01-28 01:09:00,
2013-01-27 20:11:00,14.4,5.7,30.42,SSE,157,0.0,0.0,68,0.00,,,0.00,WUHU21623XXSP,2013-01-28 01:11:00,
2013-01-27 20:13:00,14.4,5.7,30.42,SSE,157,0.0,0.0,68,0.00,,,0.00,WUHU21623XXSP,2013-01-28 01:13:00,
2013-01-27 20:15:00,14.2,5.6,30.43,SSE,157,0.0,0.0,68,0.00,,,0.00,WUHU21623XXSP,2013-01-28 01:15:00,
2013-01-27 20:18:00,14.2,5.6,30.43,SSE,157,0.0,0.0,68,0.00,,,0.00,WUHU21623XXSP,2013-01-28 01:18:00,
2013-01-27 20:20:00,14.2,5.6,30.43,SSE,157,0.0,0.0,68,0.00,,,0.00,WUHU21623XXSP,2013-01-28 01:20:00,
2013-01-27 20:22:00,13.8,4.9,30.43,SSE,157,0.0,0.0,67,0.00,,,0.00,WUHU21623XXSP,2013-01-28 01:22:00,
2013-01-27 20:24:00,13.6,4.7,30.42,SSE,157,0.0,0.0,67,0.00,,,0.00,WUHU21623XXSP,2013-01-28 01:24:00,
2013-01-27 20:26:00,13.5,4.9,30.42,SSE,157,0.0,0.0,68,0.00,,,0.00,WUHU21623XXSP,2013-01-28 01:26:00,
2013-01-27 20:28:00,13.3,4.7,30.43,SSE,157,0.0,0.0,68,0.00,,,0.00,WUHU21623XXSP,2013-01-28 01:28:00,
2013-01-27 20:30:00,13.1,4.2,30.43,SSE,157,0.0,0.0,67,0.00,,,0.00,WUHU21623XXSP,2013-01-28 01:30:00,
2013-01-27 20:33:00,12.9,4.0,30.42,SSE,157,0.0,0.0,67,0.00,,,0.00,WUHU21623XXSP,2013-01-28 01:33:00,
2013-01-27 20:35:00,12.9,4.0,30.43,SSE,157,0.0,0.0,67,0.00,,,0.00,WUHU21623XXSP,2013-01-28 01:35:00,
2013-01-27 20:37:00,12.7,3.8,30.42,SSE,157,0.0,0.0,67,0.00,,,0.00,WUHU21623XXSP,2013-01-28 01:37:00,
2013-01-27 20:39:00,12.7,4.1,30.42,SSE,157,0.0,0.0,68,0.00,,,0.00,WUHU21623XXSP,2013-01-28 01:39:00,
2013-01-27 20:41:00,12.7,4.1,30.42,SSE,157,0.0,0.0,68,0.00,,,0.00,WUHU21623XXSP,2013-01-28 01:41:00,
2013-01-27 20:43:00,12.7,4.1,30.42,SSE,157,0.0,0.0,68,0.00,,,0.00,WUHU21623XXSP,2013-01-28 01:43:00,
2013-01-27 20:45:00,12.7,4.1,30.42,SSE,157,0.0,0.0,68,0.00,,,0.00,WUHU21623XXSP,2013-01-28 01:45:00,
2013-01-27 20:47:00,12.9,4.7,30.42,SSE,157,0.0,0.0,69,0.00,,,0.00,WUHU21623XXSP,2013-01-28 01:47:00,
2013-01-27 20:50:00,13.1,5.2,30.42,SSE,157,0.0,0.0,70,0.00,,,0.00,WUHU21623XXSP,2013-01-28 01:50:00,
2013-01-27 20:52:00,13.3,5.4,30.42,SSE,157,0.0,0.0,70,0.00,,,0.00,WUHU21623XXSP,2013-01-28 01:52:00,
2013-01-27 20:54:00,13.3,5.0,30.43,SSE,157,0.0,0.0,69,0.00,,,0.00,WUHU21623XXSP,2013-01-28 01:54:00,
2013-01-27 20:56:00,13.3,5.0,30.43,SSE,157,0.0,0.0,69,0.00,,,0.00,WUHU21623XXSP,2013-01-28 01:56:00,
2013-01-27 20:58:00,13.5,5.2,30.43,SSE,157,0.0,0.0,69,0.00,,,0.00,WUHU21623XXSP,2013-01-28 01:58:00,
2013-01-27 21:00:00,13.6,5.4,30.43,SSE,157,0.0,0.0,69,0.00,,,0.00,WUHU21623XXSP,2013-01-28 02:00:00,
2013-01-27 21:02:00,13.6,5.4,30.42,SSE,157,0.0,0.0,69,0.00,,,0.00,WUHU21623XXSP,2013-01-28 02:02:00,
2013-01-27 21:05:00,13.6,5.4,30.43,SSE,157,0.0,0.0,69,0.00,,,0.00,WUHU21623XXSP,2013-01-28 02:05:00,
2013-01-27 21:07:00,13.8,5.6,30.43,SSE,157,0.0,0.0,69,0.00,,,0.00,WUHU21623XXSP,2013-01-28 02:07:00,
2013-01-27 21:09:00,13.8,5.6,30.42,SSE,157,0.0,0.0,69,0.00,,,0.00,WUHU21623XXSP,2013-01-28 02:09:00,
2013-01-27 21:11:00,13.8,5.6,30.43,SSE,157,0.0,0.0,69,0.00,,,0.00,WUHU21623XXSP,2013-01-28 02:11:00,
2013-01-27 21:13:00,13.8,5.6,30.43,SSE,157,0.0,0.0,69,0.00,,,0.00,WUHU21623XXSP,2013-01-28 02:13:00,
2013-01-27 21:15:00,13.8,5.6,30.44,SSE,157,0.0,0.0,69,0.00,,,0.00,WUHU21623XXSP,2013-01-28 02:15:00,
2013-01-27 21:17:00,14.0,5.7,30.44,SSE,157,0.0,0.0,69,0.00,,,0.00,WUHU21623XXSP,2013-01-28 02:17:00,
2013-01-27 21:20:00,14.2,5.9,30.44,SSE,157,0.0,0.0,69,0.00,,,0.00,WUHU21623XXSP,2013-01-28 02:20:00,
2013-01-27 21:22:00,14.4,6.4,30.43,SSE,157,0.0,0.0,70,0.00,,,0.00,WUHU21623XXSP,2013-01-28 02:22:00,
2013-01-27 21:24:00,14.5,6.9,30.43,SSE,157,0.0,0.0,71,0.00,,,0.00,WUHU21623XXSP,2013-01-28 02:24:00,
2013-01-27 21:26:00,14.5,6.9,30.43,SSE,157,0.0,0.0,71,0.00,,,0.00,WUHU21623XXSP,2013-01-28 02:26:00,
2013-01-27 21:28:00,14.5,6.9,30.42,SSE,157,0.0,0.0,71,0.00,,,0.00,WUHU21623XXSP,2013-01-28 02:28:00,
2013-01-27 21:30:00,14.5,6.6,30.42,SSE,157,0.0,0.0,70,0.00,,,0.00,WUHU21623XXSP,2013-01-28 02:30:00,
2013-01-27 21:32:00,14.5,6.9,30.41,SSE,157,0.0,0.0,71,0.00,,,0.00,WUHU21623XXSP,2013-01-28 02:32:00,
2013-01-27 21:35:00,14.5,6.6,30.41,SSE,157,0.0,0.0,70,0.00,,,0.00,WUHU21623XXSP,2013-01-28 02:35:00,
2013-01-27 21:37:00,14.4,6.4,30.41,SSE,157,0.0,0.0,70,0.00,,,0.00,WUHU21623XXSP,2013-01-28 02:37:00,
2013-01-27 21:39:00,14.4,6.4,30.42,SSE,157,0.0,0.0,70,0.00,,,0.00,WUHU21623XXSP,2013-01-28 02:39:00,
2013-01-27 21:41:00,14.2,6.2,30.42,SSE,157,0.0,0.0,70,0.00,,,0.00,WUHU21623XXSP,2013-01-28 02:41:00,
2013-01-27 21:43:00,14.2,6.2,30.42,SSE,157,0.0,0.0,70,0.00,,,0.00,WUHU21623XXSP,2013-01-28 02:43:00,
2013-01-27 21:45:00,14.2,6.2,30.41,SSE,157,0.0,0.0,70,0.00,,,0.00,WUHU21623XXSP,2013-01-28 02:45:00,
2013-01-27 21:47:00,14.2,6.5,30.41,SSE,157,0.0,0.0,71,0.00,,,0.00,WUHU21623XXSP,2013-01-28 02:47:00,
2013-01-27 21:50:00,14.2,6.5,30.41,SSE,157,0.0,0.0,71,0.00,,,0.00,WUHU21623XXSP,2013-01-28 02:50:00,
2013-01-27 21:52:00,14.2,6.5,30.41,SSE,157,0.0,0.0,71,0.00,,,0.00,WUHU21623XXSP,2013-01-28 02:52:00,
2013-01-27 21:54:00,14.2,6.5,30.41,SSE,157,0.0,0.0,71,0.00,,,0.00,WUHU21623XXSP,2013-01-28 02:54:00,
2013-01-27 21:56:00,14.2,6.5,30.41,SSE,157,0.0,0.0,71,0.00,,,0.00,WUHU21623XXSP,2013-01-28 02:56:00,
2013-01-27 21:58:00,14.2,6.5,30.41,SSE,157,0.0,0.0,71,0.00,,,0.00,WUHU21623XXSP,2013-01-28 02:58:00,
2013-01-27 22:00:00,14.2,6.5,30.41,SSE,157,0.0,0.0,71,0.00,,,0.00,WUHU21623XXSP,2013-01-28 03:00:00,
2013-01-27 22:03:00,14.4,6.7,30.41,SSE,157,0.0,0.0,71,0.00,,,0.00,WUHU21623XXSP,2013-01-28 03:03:00,
2013-01-27 22:05:00,14.4,6.7,30.41,SSE,157,0.0,0.0,71,0.00,,,0.00,WUHU21623XXSP,2013-01-28 03:05:00,
2013-01-27 22:07:00,14.4,6.7,30.41,SSE,157,0.0,0.0,71,0.00,,,0.00,WUHU21623XXSP,2013-01-28 03:07:00,
2013-01-27 22:09:00,14.4,6.7,30.41,SSE,157,0.0,0.0,71,0.00,,,0.00,WUHU21623XXSP,2013-01-28 03:09:00,
2013-01-27 22:11:00,14.4,6.7,30.41,SSE,157,0.0,0.0,71,0.00,,,0.00,WUHU21623XXSP,2013-01-28 03:11:00,
2013-01-27 22:13:00,14.4,6.7,30.40,SSE,157,0.0,0.0,71,0.00,,,0.00,WUHU21623XXSP,2013-01-28 03:13:00,
2013-01-27 22:15:00,14.4,6.7,30.40,SSE,157,0.0,0.0,71,0.00,,,0.00,WUHU21623XXSP,2013-01-28 03:15:00,
2013-01-27 22:17:00,14.4,6.7,30.40,SSE,157,0.0,0.0,71,0.00,,,0.00,WUHU21623XXSP,2013-01-28 03:17:00,
2013-01-27 22:19:00,14.5,6.9,30.40,SSE,157,0.0,0.0,71,0.00,,,0.00,WUHU21623XXSP,2013-01-28 03:19:00,
2013-01-27 22:22:00,14.5,6.9,30.40,SSE,157,0.0,0.0,71,0.00,,,0.00,WUHU21623XXSP,2013-01-28 03:22:00,
2013-01-27 22:24:00,14.7,7.0,30.40,SSE,157,0.0,0.0,71,0.00,,,0.00,WUHU21623XXSP,2013-01-28 03:24:00,
2013-01-27 22:26:00,14.7,7.0,30.40,SSE,157,0.0,0.0,71,0.00,,,0.00,WUHU21623XXSP,2013-01-28 03:26:00,
2013-01-27 22:28:00,14.7,7.0,30.40,SSE,157,0.0,0.0,71,0.00,,,0.00,WUHU21623XXSP,2013-01-28 03:28:00,
2013-01-27 22:30:00,14.9,6.9,30.40,SSE,157,0.0,0.0,70,0.00,,,0.00,WUHU21623XXSP,2013-01-28 03:30:00,
2013-01-27 22:32:00,15.1,7.1,30.39,SSE,157,0.0,0.0,70,0.00,,,0.00,WUHU21623XXSP,2013-01-28 03:32:00,
2013-01-27 22:34:00,15.3,7.2,30.39,SSE,157,0.0,0.0,70,0.00,,,0.00,WUHU21623XXSP,2013-01-28 03:34:00,
2013-01-27 22:37:00,15.4,7.4,30.39,SSE,157,0.0,0.0,70,0.00,,,0.00,WUHU21623XXSP,2013-01-28 03:37:00,
2013-01-27 22:39:00,15.4,7.4,30.39,SSE,157,0.0,0.0,70,0.00,,,0.00,WUHU21623XXSP,2013-01-28 03:39:00,
2013-01-27 22:41:00,15.6,7.8,30.39,SSE,157,0.0,0.0,71,0.00,,,0.00,WUHU21623XXSP,2013-01-28 03:41:00,
2013-01-27 22:43:00,15.6,7.8,30.39,SSE,157,0.0,0.0,71,0.00,,,0.00,WUHU21623XXSP,2013-01-28 03:43:00,
2013-01-27 22:45:00,15.8,7.7,30.39,SSE,157,0.0,0.0,70,0.00,,,0.00,WUHU21623XXSP,2013-01-28 03:45:00,
2013-01-27 22:47:00,16.0,7.9,30.39,SSE,157,0.0,0.0,70,0.00,,,0.00,WUHU21623XXSP,2013-01-28 03:47:00,
2013-01-27 22:49:00,16.0,7.9,30.39,SSE,157,0.0,0.0,70,0.00,,,0.00,WUHU21623XXSP,2013-01-28 03:49:00,
2013-01-27 22:52:00,16.0,7.9,30.40,SSE,157,0.0,0.0,70,0.00,,,0.00,WUHU21623XXSP,2013-01-28 03:52:00,
2013-01-27 22:54:00,16.2,7.7,30.40,SSE,157,0.0,0.0,69,0.00,,,0.00,WUHU21623XXSP,2013-01-28 03:54:00,
2013-01-27 22:56:00,16.2,8.1,30.40,SSE,157,0.0,0.0,70,0.00,,,0.00,WUHU21623XXSP,2013-01-28 03:56:00,
2013-01-27 22:58:00,16.2,7.7,30.40,SSE,157,0.0,0.0,69,0.00,,,0.00,WUHU21623XXSP,2013-01-28 03:58:00,
2013-01-27 23:00:00,16.2,8.1,30.40,SSE,157,0.0,0.0,70,0.00,,,0.00,WUHU21623XXSP,2013-01-28 04:00:00,
2013-01-27 23:02:00,16.2,8.1,30.40,SSE,157,0.0,0.0,70,0.00,,,0.00,WUHU21623XXSP,2013-01-28 04:02:00,
2013-01-27 23:04:00,16.2,8.1,30.39,SSE,157,0.0,0.0,70,0.00,,,0.00,WUHU21623XXSP,2013-01-28 04:04:00,
2013-01-27 23:07:00,16.2,8.1,30.39,SSE,157,0.0,0.0,70,0.00,,,0.00,WUHU21623XXSP,2013-01-28 04:07:00,
2013-01-27 23:09:00,16.2,8.1,30.39,SSE,157,0.0,0.0,70,0.00,,,0.00,WUHU21623XXSP,2013-01-28 04:09:00,
2013-01-27 23:11:00,16.3,8.2,30.39,SSE,157,0.0,0.0,70,0.00,,,0.00,WUHU21623XXSP,2013-01-28 04:11:00,
2013-01-27 23:13:00,16.3,8.2,30.40,SSE,157,0.0,0.0,70,0.00,,,0.00,WUHU21623XXSP,2013-01-28 04:13:00,
2013-01-27 23:15:00,16.3,8.2,30.40,SSE,157,0.0,0.0,70,0.00,,,0.00,WUHU21623XXSP,2013-01-28 04:15:00,
2013-01-27 23:17:00,16.3,8.2,30.40,SSE,157,0.0,0.0,70,0.00,,,0.00,WUHU21623XXSP,2013-01-28 04:17:00,
2013-01-27 23:19:00,16.3,8.2,30.40,SSE,157,0.0,0.0,70,0.00,,,0.00,WUHU21623XXSP,2013-01-28 04:19:00,
2013-01-27 23:22:00,16.5,8.4,30.40,SSE,157,0.0,0.0,70,0.00,,,0.00,WUHU21623XXSP,2013-01-28 04:22:00,
2013-01-27 23:24:00,16.5,8.4,30.40,SSE,157,0.0,0.0,70,0.00,,,0.00,WUHU21623XXSP,2013-01-28 04:24:00,
2013-01-27 23:26:00,16.5,8.4,30.40,SSE,157,0.0,0.0,70,0.00,,,0.00,WUHU21623XXSP,2013-01-28 04:26:00,
2013-01-27 23:28:00,16.7,8.9,30.40,SSE,157,0.0,0.0,71,0.00,,,0.00,WUHU21623XXSP,2013-01-28 04:28:00,
2013-01-27 23:30:00,16.7,8.9,30.40,SSE,157,0.0,0.0,71,0.00,,,0.00,WUHU21623XXSP,2013-01-28 04:30:00,
2013-01-27 23:32:00,16.7,8.9,30.40,SSE,157,0.0,0.0,71,0.00,,,0.00,WUHU21623XXSP,2013-01-28 04:32:00,
2013-01-27 23:34:00,16.7,8.6,30.40,SSE,157,0.0,0.0,70,0.00,,,0.00,WUHU21623XXSP,2013-01-28 04:34:00,
2013-01-27 23:37:00,16.9,8.4,30.40,SSE,157,0.0,0.0,69,0.00,,,0.00,WUHU21623XXSP,2013-01-28 04:37:00,
2013-01-27 23:39:00,16.9,8.4,30.39,SSE,157,0.0,0.0,69,0.00,,,0.00,WUHU21623XXSP,2013-01-28 04:39:00,
2013-01-27 23:41:00,16.9,8.4,30.39,SSE,157,0.0,0.0,69,0.00,,,0.00,WUHU21623XXSP,2013-01-28 04:41:00,
2013-01-27 23:43:00,16.9,8.4,30.39,SSE,157,0.0,0.0,69,0.00,,,0.00,WUHU21623XXSP,2013-01-28 04:43:00,
2013-01-27 23:45:00,16.9,8.4,30.39,SSE,157,0.0,0.0,69,0.00,,,0.00,WUHU21623XXSP,2013-01-28 04:45:00,
2013-01-27 23:47:00,16.9,8.4,30.39,SSE,157,0.0,0.0,69,0.00,,,0.00,WUHU21623XXSP,2013-01-28 04:47:00,
2013-01-27 23:50:00,16.9,8.4,30.40,SSE,157,0.0,0.0,69,0.00,,,0.00,WUHU21623XXSP,2013-01-28 04:50:00,
2013-01-27 23:53:00,17.2,8.5,30.39,SSE,157,0.0,0.0,68,0.00,,,0.00,WUHU21623XXSP,2013-01-28 04:53:00,
2013-01-27 23:54:00,17.2,8.5,30.39,SSE,157,0.0,0.0,68,0.00,,,0.00,WUHU21623XXSP,2013-01-28 04:54:00,
2013-01-27 23:56:00,17.2,8.5,30.39,SSE,157,0.0,0.0,68,0.00,,,0.00,WUHU21623XXSP,2013-01-28 04:56:00,
2013-01-27 23:58:00,17.2,8.5,30.39,SSE,157,0.0,0.0,68,0.00,,,0.00,WUHU21623XXSP,2013-01-28 04:58:00,